NCAR-RAP Real-Time Weather Data

Output produced by METARs form (24 July 2017  08:49 UTC)
found at http://weather.rap.ucar.edu/surface/
 
Conditions at: KCTY observed 24 July 2017  08:35 UTC
Temperature: 24.1°C (75°F)
Dewpoint: 23.0°C (73°F) [RH = 94%]
Pressure (altimeter): 30.03 inches Hg (1017.0 mb)
Winds: from the SSW (200 degrees) at 6 MPH (5 knots; 2.6 m/s)
Visibility: 10 or more miles (16+ km)
Ceiling: at least 12,000 feet AGL
Clouds: scattered clouds at 4300 feet AGL
Present Weather: automated observation with no human augmentation;
there may or may not be significant weather present at this time
KCTY 240835Z AUTO 20005KT 10SM SCT043 24/23 A3003 RMK AO2 LTG DSNT W P0001 T02410230

Conditions at: KCTY observed 24 July 2017  08:15 UTC
Temperature: 23.4°C (74°F)
Dewpoint: 22.7°C (73°F) [RH = 96%]
Pressure (altimeter): 30.03 inches Hg (1017.0 mb)
Winds: from the SSE (160 degrees) at 5 MPH (4 knots; 2.1 m/s)
Visibility: 10 or more miles (16+ km)
Ceiling: at least 12,000 feet AGL
Clouds: scattered clouds at 3900 feet AGL
scattered clouds at 4600 feet AGL
Present Weather: automated observation with no human augmentation;
there may or may not be significant weather present at this time
KCTY 240815Z AUTO 16004KT 10SM SCT039 SCT046 23/23 A3003 RMK AO2 LTG DSNT S P0001 T02340227

Conditions at: KCTY observed 24 July 2017  07:55 UTC
Temperature: 23.8°C (75°F)
Dewpoint: 23.0°C (73°F) [RH = 95%]
Pressure (altimeter): 30.03 inches Hg (1017.0 mb)
Winds: from the S (180 degrees) at 5 MPH (4 knots; 2.1 m/s)
Visibility: 10 or more miles (16+ km)
Ceiling: 4500 feet AGL
Clouds: scattered clouds at 2500 feet AGL
scattered clouds at 3800 feet AGL
broken clouds at 4500 feet AGL
Present Weather: automated observation with no human augmentation;
there may or may not be significant weather present at this time
KCTY 240755Z AUTO 18004KT 10SM SCT025 SCT038 BKN045 24/23 A3003 RMK AO2 LTG DSNT SE P0003 T02380230

Conditions at: KCTY observed 24 July 2017  07:35 UTC
Temperature: 23.7°C (75°F)
Dewpoint: 23.2°C (74°F) [RH = 97%]
Pressure (altimeter): 30.02 inches Hg (1016.7 mb)
Winds: from the S (180 degrees) at 3 MPH (3 knots; 1.6 m/s)
Visibility: 10 or more miles (16+ km)
Ceiling: at least 12,000 feet AGL
Clouds: scattered clouds at 2300 feet AGL
scattered clouds at 3000 feet AGL
scattered clouds at 5000 feet AGL
Present Weather: automated observation with no human augmentation;
there may or may not be significant weather present at this time
KCTY 240735Z AUTO 18003KT 10SM SCT023 SCT030 SCT050 24/23 A3002 RMK AO2 LTG DSNT SW T02370232

Conditions at: KCTY observed 24 July 2017  07:15 UTC
Temperature: 23.8°C (75°F)
Dewpoint: 23.3°C (74°F) [RH = 97%]
Pressure (altimeter): 30.03 inches Hg (1017.0 mb)
Winds: from the SSE (160 degrees) at 5 MPH (4 knots; 2.1 m/s)
Visibility: 10 or more miles (16+ km)
Ceiling: at least 12,000 feet AGL
Clouds: scattered clouds at 2600 feet AGL
scattered clouds at 3300 feet AGL
scattered clouds at 5000 feet AGL
Present Weather: automated observation with no human augmentation;
there may or may not be significant weather present at this time
KCTY 240715Z AUTO 16004KT 10SM SCT026 SCT033 SCT050 24/23 A3003 RMK AO2 LTG DSNT N S AND SW T02380233

Conditions at: KCTY observed 24 July 2017  06:55 UTC
Temperature: 23.9°C (75°F)
Dewpoint: 23.3°C (74°F) [RH = 96%]
Pressure (altimeter): 30.04 inches Hg (1017.4 mb)
Winds: from the SSE (160 degrees) at 3 MPH (3 knots; 1.6 m/s)
Visibility: 10 or more miles (16+ km)
Ceiling: at least 12,000 feet AGL
Clouds: scattered clouds at 2400 feet AGL
scattered clouds at 3300 feet AGL
Present Weather: automated observation with no human augmentation;
there may or may not be significant weather present at this time
KCTY 240655Z AUTO 16003KT 10SM SCT024 SCT033 24/23 A3004 RMK AO2 LTG DSNT N AND SE T02390233

Conditions at: KCTY observed 24 July 2017  06:35 UTC
Temperature: 23.8°C (75°F)
Dewpoint: 23.3°C (74°F) [RH = 97%]
Pressure (altimeter): 30.04 inches Hg (1017.4 mb)
Winds: from the SSE (160 degrees) at 6 MPH (5 knots; 2.6 m/s)
Visibility: 10 or more miles (16+ km)
Ceiling: at least 12,000 feet AGL
Clouds: sky clear below 12,000 feet AGL
Present Weather: automated observation with no human augmentation;
there may or may not be significant weather present at this time
KCTY 240635Z AUTO 16005KT 10SM CLR 24/23 A3004 RMK AO2 LTG DSNT SE SW AND NW T02380233

Conditions at: KCTY observed 24 July 2017  06:15 UTC
Temperature: 23.8°C (75°F)
Dewpoint: 23.3°C (74°F) [RH = 97%]
Pressure (altimeter): 30.05 inches Hg (1017.7 mb)
Winds: from the SSE (150 degrees) at 5 MPH (4 knots; 2.1 m/s)
Visibility: 10 or more miles (16+ km)
Ceiling: at least 12,000 feet AGL
Clouds: scattered clouds at 2600 feet AGL
scattered clouds at 3100 feet AGL
Present Weather: automated observation with no human augmentation;
there may or may not be significant weather present at this time
KCTY 240615Z AUTO 15004KT 10SM SCT026 SCT031 24/23 A3005 RMK AO2 LTG DSNT SE T02380233

Conditions at: KCTY observed 24 July 2017  05:55 UTC
Temperature: 23.8°C (75°F)
Dewpoint: 23.3°C (74°F) [RH = 97%]
Pressure (altimeter): 30.05 inches Hg (1017.7 mb)
Winds: from the SSE (160 degrees) at 5 MPH (4 knots; 2.1 m/s)
Visibility: 10 or more miles (16+ km)
Ceiling: at least 12,000 feet AGL
Clouds: scattered clouds at 2400 feet AGL
Present Weather: automated observation with no human augmentation;
there may or may not be significant weather present at this time
KCTY 240555Z AUTO 16004KT 10SM SCT024 24/23 A3005 RMK AO2 LTG DSNT NW T02380233 10263 20235

Conditions at: KCTY observed 24 July 2017  05:35 UTC
Temperature: 23.8°C (75°F)
Dewpoint: 23.4°C (74°F) [RH = 98%]
Pressure (altimeter): 30.05 inches Hg (1017.7 mb)
Winds: from the SSE (160 degrees) at 3 MPH (3 knots; 1.6 m/s)
Visibility: 10 or more miles (16+ km)
Ceiling: at least 12,000 feet AGL
Clouds: sky clear below 12,000 feet AGL
Present Weather: automated observation with no human augmentation;
there may or may not be significant weather present at this time
KCTY 240535Z AUTO 16003KT 10SM CLR 24/23 A3005 RMK AO2 T02380234

Conditions at: KCTY observed 24 July 2017  05:15 UTC
Temperature: 23.8°C (75°F)
Dewpoint: 23.3°C (74°F) [RH = 97%]
Pressure (altimeter): 30.06 inches Hg (1018.0 mb)
Winds: calm
Visibility: 10 or more miles (16+ km)
Ceiling: at least 12,000 feet AGL
Clouds: scattered clouds at 3300 feet AGL
scattered clouds at 4100 feet AGL
scattered clouds at 5000 feet AGL
Present Weather: automated observation with no human augmentation;
there may or may not be significant weather present at this time
KCTY 240515Z AUTO 00000KT 10SM SCT033 SCT041 SCT050 24/23 A3006 RMK AO2 LTG DSNT S T02380233

Conditions at: KCTY observed 24 July 2017  04:55 UTC
Temperature: 23.8°C (75°F)
Dewpoint: 23.4°C (74°F) [RH = 98%]
Pressure (altimeter): 30.06 inches Hg (1018.0 mb)
Winds: calm
Visibility: 10 or more miles (16+ km)
Ceiling: at least 12,000 feet AGL
Clouds: sky clear below 12,000 feet AGL
Present Weather: automated observation with no human augmentation;
there may or may not be significant weather present at this time
KCTY 240455Z AUTO 00000KT 10SM CLR 24/23 A3006 RMK AO2 T02380234

Conditions at: KCTY observed 24 July 2017  04:35 UTC
Temperature: 23.6°C (74°F)
Dewpoint: 23.1°C (74°F) [RH = 97%]
Pressure (altimeter): 30.06 inches Hg (1018.0 mb)
Winds: calm
Visibility: 10 or more miles (16+ km)
Ceiling: at least 12,000 feet AGL
Clouds: sky clear below 12,000 feet AGL
Present Weather: automated observation with no human augmentation;
there may or may not be significant weather present at this time
KCTY 240435Z AUTO 00000KT 10SM CLR 24/23 A3006 RMK AO2 LTG DSNT SE T02360231

Conditions at: KCTY observed 24 July 2017  04:15 UTC
Temperature: 24.0°C (75°F)
Dewpoint: 23.5°C (74°F) [RH = 97%]
Pressure (altimeter): 30.05 inches Hg (1017.7 mb)
Winds: calm
Visibility: 10 or more miles (16+ km)
Ceiling: at least 12,000 feet AGL
Clouds: sky clear below 12,000 feet AGL
Present Weather: automated observation with no human augmentation;
there may or may not be significant weather present at this time
KCTY 240415Z AUTO 00000KT 10SM CLR 24/23 A3005 RMK AO2 T02400235

Conditions at: KCTY observed 24 July 2017  03:55 UTC
Temperature: 24.0°C (75°F)
Dewpoint: 23.5°C (74°F) [RH = 97%]
Pressure (altimeter): 30.05 inches Hg (1017.7 mb)
Winds: calm
Visibility: 10 or more miles (16+ km)
Ceiling: at least 12,000 feet AGL
Clouds: sky clear below 12,000 feet AGL
Present Weather: automated observation with no human augmentation;
there may or may not be significant weather present at this time
KCTY 240355Z AUTO 00000KT 10SM CLR 24/24 A3005 RMK AO2 T02400235

Conditions at: KCTY observed 24 July 2017  03:35 UTC
Temperature: 24.1°C (75°F)
Dewpoint: 23.6°C (74°F) [RH = 97%]
Pressure (altimeter): 30.05 inches Hg (1017.7 mb)
Winds: calm
Visibility: 10 or more miles (16+ km)
Ceiling: at least 12,000 feet AGL
Clouds: sky clear below 12,000 feet AGL
Present Weather: automated observation with no human augmentation;
there may or may not be significant weather present at this time
KCTY 240335Z AUTO 00000KT 10SM CLR 24/24 A3005 RMK AO2 T02410236

Conditions at: KCTY observed 24 July 2017  03:15 UTC
Temperature: 24.3°C (76°F)
Dewpoint: 23.7°C (75°F) [RH = 96%]
Pressure (altimeter): 30.05 inches Hg (1017.7 mb)
Winds: calm
Visibility: 10 or more miles (16+ km)
Ceiling: at least 12,000 feet AGL
Clouds: sky clear below 12,000 feet AGL
Present Weather: automated observation with no human augmentation;
there may or may not be significant weather present at this time
KCTY 240315Z AUTO 00000KT 10SM CLR 24/24 A3005 RMK AO2 T02430237

Conditions at: KCTY observed 24 July 2017  02:55 UTC
Temperature: 24.4°C (76°F)
Dewpoint: 23.7°C (75°F) [RH = 96%]
Pressure (altimeter): 30.04 inches Hg (1017.4 mb)
Winds: calm
Visibility: 10 or more miles (16+ km)
Ceiling: at least 12,000 feet AGL
Clouds: sky clear below 12,000 feet AGL
Present Weather: automated observation with no human augmentation;
there may or may not be significant weather present at this time
KCTY 240255Z AUTO 00000KT 10SM CLR 24/24 A3004 RMK AO2 T02440237

Conditions at: KCTY observed 24 July 2017  02:35 UTC
Temperature: 24.5°C (76°F)
Dewpoint: 23.9°C (75°F) [RH = 96%]
Pressure (altimeter): 30.04 inches Hg (1017.4 mb)
Winds: calm
Visibility: 10 or more miles (16+ km)
Ceiling: at least 12,000 feet AGL
Clouds: scattered clouds at 2400 feet AGL
scattered clouds at 5000 feet AGL
Present Weather: automated observation with no human augmentation;
there may or may not be significant weather present at this time
KCTY 240235Z AUTO 00000KT 10SM SCT024 SCT050 24/24 A3004 RMK AO2 T02450239

Conditions at: KCTY observed 24 July 2017  02:15 UTC
Temperature: 24.7°C (76°F)
Dewpoint: 23.9°C (75°F) [RH = 95%]
Pressure (altimeter): 30.04 inches Hg (1017.4 mb)
Winds: calm
Visibility: 10 or more miles (16+ km)
Ceiling: 5000 feet AGL
Clouds: scattered clouds at 2400 feet AGL
scattered clouds at 3800 feet AGL
broken clouds at 5000 feet AGL
Present Weather: automated observation with no human augmentation;
there may or may not be significant weather present at this time
KCTY 240215Z AUTO 00000KT 10SM SCT024 SCT038 BKN050 25/24 A3004 RMK AO2 T02470239

Conditions at: KCTY observed 24 July 2017  01:55 UTC
Temperature: 24.8°C (77°F)
Dewpoint: 24.0°C (75°F) [RH = 95%]
Pressure (altimeter): 30.03 inches Hg (1017.0 mb)
Winds: calm
Visibility: 10 or more miles (16+ km)
Ceiling: at least 12,000 feet AGL
Clouds: scattered clouds at 2600 feet AGL
Present Weather: automated observation with no human augmentation;
there may or may not be significant weather present at this time
KCTY 240155Z AUTO 00000KT 10SM SCT026 25/24 A3003 RMK AO2 T02480240

Conditions at: KCTY observed 24 July 2017  01:35 UTC
Temperature: 24.9°C (77°F)
Dewpoint: 24.0°C (75°F) [RH = 95%]
Pressure (altimeter): 30.02 inches Hg (1016.7 mb)
Winds: from the S (170 degrees) at 3 MPH (3 knots; 1.6 m/s)
Visibility: 10 or more miles (16+ km)
Ceiling: at least 12,000 feet AGL
Clouds: scattered clouds at 2500 feet AGL
scattered clouds at 3100 feet AGL
scattered clouds at 3800 feet AGL
Present Weather: automated observation with no human augmentation;
there may or may not be significant weather present at this time
KCTY 240135Z AUTO 17003KT 10SM SCT025 SCT031 SCT038 25/24 A3002 RMK AO2 T02490240

Conditions at: KCTY observed 24 July 2017  01:15 UTC
Temperature: 25.3°C (78°F)
Dewpoint: 24.1°C (75°F) [RH = 93%]
Pressure (altimeter): 30.02 inches Hg (1016.7 mb)
Winds: calm
Visibility: 10 or more miles (16+ km)
Ceiling: 3700 feet AGL
Clouds: scattered clouds at 2400 feet AGL
broken clouds at 3700 feet AGL
broken clouds at 4600 feet AGL
Present Weather: automated observation with no human augmentation;
there may or may not be significant weather present at this time
KCTY 240115Z AUTO 00000KT 10SM SCT024 BKN037 BKN046 25/24 A3002 RMK AO2 T02530241

Conditions at: KCTY observed 24 July 2017  00:55 UTC
Temperature: 26.0°C (79°F)
Dewpoint: 24.0°C (75°F) [RH = 89%]
Pressure (altimeter): 30.01 inches Hg (1016.3 mb)
Winds: from the SSW (200 degrees) at 3 MPH (3 knots; 1.6 m/s)
Visibility: 10 or more miles (16+ km)
Ceiling: at least 12,000 feet AGL
Clouds: scattered clouds at 2400 feet AGL
scattered clouds at 3400 feet AGL
Present Weather: automated observation with no human augmentation;
there may or may not be significant weather present at this time
KCTY 240055Z AUTO 20003KT 10SM SCT024 SCT034 26/24 A3001 RMK AO2

Conditions at: KCTY observed 24 July 2017  00:35 UTC
Temperature: 25.9°C (79°F)
Dewpoint: 24.0°C (75°F) [RH = 89%]
Pressure (altimeter): 30.01 inches Hg (1016.3 mb)
Winds: from the SSW (200 degrees) at 5 MPH (4 knots; 2.1 m/s)
Visibility: 10 or more miles (16+ km)
Ceiling: 2700 feet AGL
Clouds: scattered clouds at 2200 feet AGL
broken clouds at 2700 feet AGL
broken clouds at 3600 feet AGL
Present Weather: automated observation with no human augmentation;
there may or may not be significant weather present at this time
KCTY 240035Z AUTO 20004KT 10SM SCT022 BKN027 BKN036 26/24 A3001 RMK AO2 T02590240

Conditions at: KCTY observed 24 July 2017  00:15 UTC
Temperature: 26.2°C (79°F)
Dewpoint: 23.9°C (75°F) [RH = 87%]
Pressure (altimeter): 30.01 inches Hg (1016.3 mb)
Winds: from the S (190 degrees) at 5 MPH (4 knots; 2.1 m/s)
Visibility: 10 or more miles (16+ km)
Ceiling: 3500 feet AGL
Clouds: scattered clouds at 2200 feet AGL
broken clouds at 3500 feet AGL
Present Weather: automated observation with no human augmentation;
there may or may not be significant weather present at this time
KCTY 240015Z AUTO 19004KT 10SM SCT022 BKN035 26/24 A3001 RMK AO2 T02620239

Conditions at: KCTY observed 23 July 2017  23:55 UTC
Temperature: 26.3°C (79°F)
Dewpoint: 23.9°C (75°F) [RH = 87%]
Pressure (altimeter): 30.01 inches Hg (1016.3 mb)
Winds: from the SSW (200 degrees) at 6 MPH (5 knots; 2.6 m/s)
Visibility: 10 or more miles (16+ km)
Ceiling: at least 12,000 feet AGL
Clouds: scattered clouds at 2200 feet AGL
Present Weather: automated observation with no human augmentation;
there may or may not be significant weather present at this time
KCTY 232355Z AUTO 20005KT 10SM SCT022 26/24 A3001 RMK AO2 T02630239 10274 20259 402740227

Conditions at: KCTY observed 23 July 2017  23:35 UTC
Temperature: 26.6°C (80°F)
Dewpoint: 23.9°C (75°F) [RH = 85%]
Pressure (altimeter): 30.02 inches Hg (1016.7 mb)
Winds: from the SSW (210 degrees) at 6 MPH (5 knots; 2.6 m/s)
Visibility: 10 or more miles (16+ km)
Ceiling: at least 12,000 feet AGL
Clouds: scattered clouds at 2000 feet AGL
Present Weather: automated observation with no human augmentation;
there may or may not be significant weather present at this time
KCTY 232335Z AUTO 21005KT 10SM SCT020 27/24 A3002 RMK AO2 T02660239

Conditions at: KCTY observed 23 July 2017  23:15 UTC
Temperature: 26.7°C (80°F)
Dewpoint: 23.6°C (74°F) [RH = 83%]
Pressure (altimeter): 30.01 inches Hg (1016.3 mb)
Winds: from the SSW (210 degrees) at 5 MPH (4 knots; 2.1 m/s)
Visibility: 10 or more miles (16+ km)
Ceiling: at least 12,000 feet AGL
Clouds: scattered clouds at 2000 feet AGL
Present Weather: automated observation with no human augmentation;
there may or may not be significant weather present at this time
KCTY 232315Z AUTO 21004KT 10SM SCT020 27/24 A3001 RMK AO2 T02670236

Conditions at: KCTY observed 23 July 2017  22:55 UTC
Temperature: 26.9°C (80°F)
Dewpoint: 23.7°C (75°F) [RH = 83%]
Pressure (altimeter): 30.01 inches Hg (1016.3 mb)
Winds: from the S (190 degrees) at 7 MPH (6 knots; 3.1 m/s)
Visibility: 10 or more miles (16+ km)
Ceiling: at least 12,000 feet AGL
Clouds: scattered clouds at 2200 feet AGL
Present Weather: automated observation with no human augmentation;
there may or may not be significant weather present at this time
KCTY 232255Z AUTO 19006KT 10SM SCT022 27/24 A3001 RMK AO2 T02690237

Conditions at: KCTY observed 23 July 2017  22:35 UTC
Temperature: 27.1°C (81°F)
Dewpoint: 23.4°C (74°F) [RH = 80%]
Pressure (altimeter): 30.01 inches Hg (1016.3 mb)
Winds: from the SW (230 degrees) at 7 MPH (6 knots; 3.1 m/s)
Visibility: 10 or more miles (16+ km)
Ceiling: at least 12,000 feet AGL
Clouds: sky clear below 12,000 feet AGL
Present Weather: automated observation with no human augmentation;
there may or may not be significant weather present at this time
KCTY 232235Z AUTO 23006KT 10SM CLR 27/23 A3001 RMK AO2 T02710234

Conditions at: KCTY observed 23 July 2017  22:15 UTC
Temperature: 27.1°C (81°F)
Dewpoint: 23.4°C (74°F) [RH = 80%]
Pressure (altimeter): 30.01 inches Hg (1016.3 mb)
Winds: from the SSW (210 degrees) at 8 MPH (7 knots; 3.6 m/s)
Visibility: missing
Ceiling: at least 12,000 feet AGL
Clouds: scattered clouds at 1800 feet AGL
Present Weather: automated observation with no human augmentation;
there may or may not be significant weather present at this time
KCTY 232215Z AUTO 21007KT SCT018 27/23 A3001 RMK AO2 T02710234

Conditions at: KCTY observed 23 July 2017  21:55 UTC
Temperature: 27.1°C (81°F)
Dewpoint: 23.7°C (75°F) [RH = 82%]
Pressure (altimeter): 30.02 inches Hg (1016.7 mb)
Winds: from the SSW (200 degrees) at 8 MPH (7 knots; 3.6 m/s)
Visibility: 10 or more miles (16+ km)
Ceiling: at least 12,000 feet AGL
Clouds: scattered clouds at 1800 feet AGL
Present Weather: automated observation with no human augmentation;
there may or may not be significant weather present at this time
KCTY 232155Z AUTO 20007KT 10SM SCT018 27/24 A3002 RMK AO2 T02710237

Conditions at: KCTY observed 23 July 2017  21:35 UTC
Temperature: 26.9°C (80°F)
Dewpoint: 24.0°C (75°F) [RH = 84%]
Pressure (altimeter): 30.03 inches Hg (1017.0 mb)
Winds: from the SW (220 degrees) at 7 MPH (6 knots; 3.1 m/s)
Visibility: 10 or more miles (16+ km)
Ceiling: 1800 feet AGL
Clouds: broken clouds at 1800 feet AGL
broken clouds at 2300 feet AGL
Present Weather: automated observation with no human augmentation;
there may or may not be significant weather present at this time
KCTY 232135Z AUTO 22006KT 10SM BKN018 BKN023 27/24 A3003 RMK AO2 T02690240

Conditions at: KCTY observed 23 July 2017  21:15 UTC
Temperature: 27.0°C (81°F)
Dewpoint: 24.0°C (75°F) [RH = 84%]
Pressure (altimeter): 30.04 inches Hg (1017.4 mb)
Winds: from the SW (230 degrees) at 7 MPH (6 knots; 3.1 m/s)
Visibility: 10 or more miles (16+ km)
Ceiling: 1800 feet AGL
Clouds: broken clouds at 1800 feet AGL
broken clouds at 2300 feet AGL
broken clouds at 2900 feet AGL
Present Weather: automated observation with no human augmentation;
there may or may not be significant weather present at this time
KCTY 232115Z AUTO 23006KT 10SM BKN018 BKN023 BKN029 27/24 A3004 RMK AO2

Conditions at: KCTY observed 23 July 2017  20:55 UTC
Temperature: 26.9°C (80°F)
Dewpoint: 23.7°C (75°F) [RH = 83%]
Pressure (altimeter): 30.04 inches Hg (1017.4 mb)
Winds: from the SSW (210 degrees) at 8 MPH (7 knots; 3.6 m/s)
Visibility: 10 or more miles (16+ km)
Ceiling: 1700 feet AGL
Clouds: broken clouds at 1700 feet AGL
Present Weather: automated observation with no human augmentation;
there may or may not be significant weather present at this time
KCTY 232055Z AUTO 21007KT 10SM BKN017 27/24 A3004 RMK AO2 T02690237

Conditions at: KCTY observed 23 July 2017  20:35 UTC
Temperature: 26.9°C (80°F)
Dewpoint: 23.6°C (74°F) [RH = 82%]
Pressure (altimeter): 30.03 inches Hg (1017.0 mb)
Winds: from the S (190 degrees) at 9 MPH (8 knots; 4.2 m/s)
Visibility: 10 or more miles (16+ km)
Ceiling: 1700 feet AGL
Clouds: broken clouds at 1700 feet AGL
Present Weather: automated observation with no human augmentation;
there may or may not be significant weather present at this time
KCTY 232035Z AUTO 19008KT 10SM BKN017 27/24 A3003 RMK AO2 T02690236

Conditions at: KCTY observed 23 July 2017  20:15 UTC
Temperature: 26.8°C (80°F)
Dewpoint: 23.7°C (75°F) [RH = 83%]
Pressure (altimeter): 30.04 inches Hg (1017.4 mb)
Winds: from the SSW (200 degrees) at 7 MPH (6 knots; 3.1 m/s)
Visibility: 10 or more miles (16+ km)
Ceiling: 1700 feet AGL
Clouds: broken clouds at 1700 feet AGL
Present Weather: automated observation with no human augmentation;
there may or may not be significant weather present at this time
KCTY 232015Z AUTO 20006KT 10SM BKN017 27/24 A3004 RMK AO2 T02680237

Conditions at: KCTY observed 23 July 2017  19:55 UTC
Temperature: 26.8°C (80°F)
Dewpoint: 23.5°C (74°F) [RH = 82%]
Pressure (altimeter): 30.05 inches Hg (1017.7 mb)
Winds: from the SSW (210 degrees) at 9 MPH (8 knots; 4.2 m/s)
Visibility: 10 or more miles (16+ km)
Ceiling: at least 12,000 feet AGL
Clouds: scattered clouds at 1500 feet AGL
Present Weather: automated observation with no human augmentation;
there may or may not be significant weather present at this time
KCTY 231955Z AUTO 21008KT 10SM SCT015 27/24 A3005 RMK AO2 T02680235

Conditions at: KCTY observed 23 July 2017  19:35 UTC
Temperature: 26.6°C (80°F)
Dewpoint: 23.2°C (74°F) [RH = 82%]
Pressure (altimeter): 30.06 inches Hg (1018.0 mb)
Winds: from the SSW (210 degrees) at 12 MPH (10 knots; 5.2 m/s)
Visibility: 10 or more miles (16+ km)
Ceiling: at least 12,000 feet AGL
Clouds: scattered clouds at 1500 feet AGL
Present Weather: automated observation with no human augmentation;
there may or may not be significant weather present at this time
KCTY 231935Z AUTO 21010KT 10SM SCT015 27/23 A3006 RMK AO2 T02660232

Conditions at: KCTY observed 23 July 2017  19:15 UTC
Temperature: 26.9°C (80°F)
Dewpoint: 23.7°C (75°F) [RH = 83%]
Pressure (altimeter): 30.07 inches Hg (1018.4 mb)
Winds: from the SSW (210 degrees) at 9 MPH (8 knots; 4.2 m/s)
Visibility: 10 or more miles (16+ km)
Ceiling: 1500 feet AGL
Clouds: broken clouds at 1500 feet AGL
broken clouds at 2200 feet AGL
Present Weather: automated observation with no human augmentation;
there may or may not be significant weather present at this time
KCTY 231915Z AUTO 21008KT 10SM BKN015 BKN022 27/24 A3007 RMK AO2 LTG DSNT SW T02690237

Conditions at: KCTY observed 23 July 2017  18:55 UTC
Temperature: 27.0°C (81°F)
Dewpoint: 23.0°C (73°F) [RH = 79%]
Pressure (altimeter): 30.08 inches Hg (1018.7 mb)
Winds: from the SW (220 degrees) at 10 MPH (9 knots; 4.7 m/s)
Visibility: 10 or more miles (16+ km)
Ceiling: 1500 feet AGL
Clouds: broken clouds at 1500 feet AGL
broken clouds at 2200 feet AGL
Present Weather: automated observation with no human augmentation;
there may or may not be significant weather present at this time
KCTY 231855Z AUTO 22009KT 10SM BKN015 BKN022 27/23 A3008 RMK AO2 LTG DSNT NE AND SW

Conditions at: KCTY observed 23 July 2017  18:35 UTC
Temperature: 27.2°C (81°F)
Dewpoint: 24.2°C (76°F) [RH = 84%]
Pressure (altimeter): 30.08 inches Hg (1018.7 mb)
Winds: from the SSW (210 degrees) at 7 MPH (6 knots; 3.1 m/s)
Visibility: 10 or more miles (16+ km)
Ceiling: 1300 feet AGL
Clouds: broken clouds at 1300 feet AGL
Present Weather: automated observation with no human augmentation;
there may or may not be significant weather present at this time
KCTY 231835Z AUTO 21006KT 10SM BKN013 27/24 A3008 RMK AO2 LTG DSNT NE E AND W T02720242

Conditions at: KCTY observed 23 July 2017  18:15 UTC
Temperature: 26.7°C (80°F)
Dewpoint: 24.2°C (76°F) [RH = 86%]
Pressure (altimeter): 30.09 inches Hg (1019.0 mb)
Winds: from the SSW (210 degrees) at 8 MPH (7 knots; 3.6 m/s)
Visibility: 10 or more miles (16+ km)
Ceiling: 1100 feet AGL
Clouds: broken clouds at 1100 feet AGL
Present Weather: automated observation with no human augmentation;
there may or may not be significant weather present at this time
KCTY 231815Z AUTO 21007KT 10SM BKN011 27/24 A3009 RMK AO2 LTG DSNT E AND W T02670242

Conditions at: KCTY observed 23 July 2017  17:55 UTC
Temperature: 26.0°C (79°F)
Dewpoint: 24.1°C (75°F) [RH = 89%]
Pressure (altimeter): 30.10 inches Hg (1019.4 mb)
Winds: from the S (190 degrees) at 10 MPH (9 knots; 4.7 m/s)
Visibility: 10 or more miles (16+ km)
Ceiling: at least 12,000 feet AGL
Clouds: scattered clouds at 1100 feet AGL
Present Weather: automated observation with no human augmentation;
there may or may not be significant weather present at this time
KCTY 231755Z AUTO 19009KT 10SM SCT011 26/24 A3010 RMK AO2 LTG DSNT W AND NW T02600241 10261 20230 60036

Conditions at: KCTY observed 23 July 2017  17:35 UTC
Temperature: 25.1°C (77°F)
Dewpoint: 23.5°C (74°F) [RH = 91%]
Pressure (altimeter): 30.10 inches Hg (1019.4 mb)
Winds: from the SSW (210 degrees) at 13 MPH (11 knots; 5.7 m/s)
Visibility: 10 or more miles (16+ km)
Ceiling: at least 12,000 feet AGL
Clouds: sky clear below 12,000 feet AGL
Present Weather: automated observation with no human augmentation;
there may or may not be significant weather present at this time
KCTY 231735Z AUTO 21011KT 10SM CLR 25/23 A3010 RMK AO2 LTG DSNT W THRU NE T02510235

Conditions at: KCTY observed 23 July 2017  17:15 UTC
Temperature: 25.1°C (77°F)
Dewpoint: 23.7°C (75°F) [RH = 92%]
Pressure (altimeter): 30.10 inches Hg (1019.4 mb)
Winds: from the SSW (200 degrees) at 9 MPH (8 knots; 4.2 m/s)
Visibility: 10 or more miles (16+ km)
Ceiling: at least 12,000 feet AGL
Clouds: sky clear below 12,000 feet AGL
Present Weather: automated observation with no human augmentation;
there may or may not be significant weather present at this time
KCTY 231715Z AUTO 20008KT 10SM CLR 25/24 A3010 RMK AO2 LTG DSNT N AND NE T02510237

Conditions at: KCTY observed 23 July 2017  16:55 UTC
Temperature: 24.6°C (76°F)
Dewpoint: 23.4°C (74°F) [RH = 93%]
Pressure (altimeter): 30.10 inches Hg (1019.4 mb)
Winds: from the SSW (200 degrees) at 9 MPH (8 knots; 4.2 m/s)
Visibility: 10 or more miles (16+ km)
Ceiling: at least 12,000 feet AGL
Clouds: scattered clouds at 600 feet AGL
Present Weather: automated observation with no human augmentation;
there may or may not be significant weather present at this time
KCTY 231655Z AUTO 20008KT 10SM SCT006 25/23 A3010 RMK AO2 LTG DSNT SW THRU NW T02460234

Conditions at: KCTY observed 23 July 2017  16:35 UTC
Temperature: 24.3°C (76°F)
Dewpoint: 23.4°C (74°F) [RH = 95%]
Pressure (altimeter): 30.11 inches Hg (1019.7 mb)
Winds: from the SSW (200 degrees) at 7 MPH (6 knots; 3.1 m/s)
Visibility: 10 or more miles (16+ km)
Ceiling: 6000 feet AGL
Clouds: scattered clouds at 800 feet AGL
scattered clouds at 3200 feet AGL
broken clouds at 6000 feet AGL
Present Weather: -RA  (light rain)
KCTY 231635Z AUTO 20006KT 10SM -RA SCT008 SCT032 BKN060 24/23 A3011 RMK AO2 LTG DSNT SW THRU NW T02430234

Conditions at: KCTY observed 23 July 2017  16:15 UTC
Temperature: 23.9°C (75°F)
Dewpoint: 22.9°C (73°F) [RH = 94%]
Pressure (altimeter): 30.11 inches Hg (1019.7 mb)
Winds: from the S (190 degrees) at 10 MPH (9 knots; 4.7 m/s)
Visibility: 10 or more miles (16+ km)
Ceiling: 5000 feet AGL
Clouds: scattered clouds at 3200 feet AGL
broken clouds at 5000 feet AGL
overcast cloud deck at 5500 feet AGL
Present Weather: -RA  (light rain)
KCTY 231615Z AUTO 19009KT 10SM -RA SCT032 BKN050 OVC055 24/23 A3011 RMK AO2 LTG DSNT SW THRU NW T02390229

Conditions at: KCTY observed 23 July 2017  15:55 UTC
Temperature: 23.7°C (75°F)
Dewpoint: 22.9°C (73°F) [RH = 95%]
Pressure (altimeter): 30.11 inches Hg (1019.7 mb)
Winds: from the SSW (210 degrees) at 9 MPH (8 knots; 4.2 m/s)
Visibility: 10 or more miles (16+ km)
Ceiling: 5000 feet AGL
Clouds: scattered clouds at 1100 feet AGL
broken clouds at 5000 feet AGL
overcast cloud deck at 6000 feet AGL
Present Weather: -RA  (light rain)
KCTY 231555Z AUTO 21008KT 10SM -RA SCT011 BKN050 OVC060 24/23 A3011 RMK AO2 LTG DSNT SE THRU NW P0006 T02370229

Conditions at: KCTY observed 23 July 2017  15:35 UTC
Temperature: 23.8°C (75°F)
Dewpoint: 23.0°C (73°F) [RH = 95%]
Pressure (altimeter): 30.11 inches Hg (1019.7 mb)
Winds: from the SSW (200 degrees) at 9 MPH (8 knots; 4.2 m/s)
Visibility: 10 or more miles (16+ km)
Ceiling: 2200 feet AGL
Clouds: scattered clouds at 800 feet AGL
broken clouds at 2200 feet AGL
overcast cloud deck at 8000 feet AGL
Present Weather: RA  (rain)
KCTY 231535Z AUTO 20008KT 10SM RA SCT008 BKN022 OVC080 24/23 A3011 RMK AO2 LTG DSNT ALQDS P0004 T02380230

Conditions at: KCTY observed 23 July 2017  15:15 UTC
Temperature: 23.8°C (75°F)
Dewpoint: 23.2°C (74°F) [RH = 96%]
Pressure (altimeter): 30.10 inches Hg (1019.4 mb)
Winds: from the SSW (200 degrees) at 8 MPH (7 knots; 3.6 m/s)
Visibility: 10 or more miles (16+ km)
Ceiling: 6500 feet AGL
Clouds: scattered clouds at 600 feet AGL
broken clouds at 6500 feet AGL
overcast cloud deck at 8000 feet AGL
Present Weather: -RA  (light rain)
KCTY 231515Z AUTO 20007KT 10SM -RA SCT006 BKN065 OVC080 24/23 A3010 RMK AO2 LTG DSNT SE THRU W P0002 T02380232

Conditions at: KCTY observed 23 July 2017  14:55 UTC
Temperature: 23.6°C (74°F)
Dewpoint: 23.1°C (74°F) [RH = 97%]
Pressure (altimeter): 30.10 inches Hg (1019.4 mb)
Winds: from the S (190 degrees) at 8 MPH (7 knots; 3.6 m/s)
Visibility: 10 or more miles (16+ km)
Ceiling: 9000 feet AGL
Clouds: scattered clouds at 400 feet AGL
scattered clouds at 2400 feet AGL
overcast cloud deck at 9000 feet AGL
Present Weather: VCTS RA  (thunderstorm in vicinity, rain)
KCTY 231455Z AUTO 19007KT 10SM VCTSRA SCT004 SCT024 OVC090 24/23 A3010 RMK AO2 LTG DSNT E AND W P0016 T02360231 60030

Conditions at: KCTY observed 23 July 2017  14:35 UTC
Temperature: 23.4°C (74°F)
Dewpoint: 22.8°C (73°F) [RH = 96%]
Pressure (altimeter): 30.11 inches Hg (1019.7 mb)
Winds: from the SW (220 degrees) at 7 MPH (6 knots; 3.1 m/s)
Visibility: 10 or more miles (16+ km)
Ceiling: 9000 feet AGL
Clouds: overcast cloud deck at 9000 feet AGL
Present Weather: RA  (rain)
KCTY 231435Z AUTO 22006KT 10SM RA OVC090 23/23 A3011 RMK AO2 LTG DSNT ALQDS P0011 T02340228

Conditions at: KCTY observed 23 July 2017  14:15 UTC
Temperature: 23.5°C (74°F)
Dewpoint: 22.9°C (73°F) [RH = 96%]
Pressure (altimeter): 30.11 inches Hg (1019.7 mb)
Winds: from the SSW (210 degrees) at 7 MPH (6 knots; 3.1 m/s)
Visibility: 7 miles (11 km)
Ceiling: 9000 feet AGL
Clouds: scattered clouds at 8000 feet AGL
overcast cloud deck at 9000 feet AGL
Present Weather: VCTS RA  (thunderstorm in vicinity, rain)
KCTY 231415Z AUTO 21006KT 7SM VCTSRA SCT080 OVC090 24/23 A3011 RMK AO2 LTG DSNT E THRU W P0005 T02350229

Conditions at: KCTY observed 23 July 2017  13:55 UTC
Temperature: 23.4°C (74°F)
Dewpoint: 22.8°C (73°F) [RH = 96%]
Pressure (altimeter): 30.10 inches Hg (1019.4 mb)
Winds: from the S (170 degrees) at 3 MPH (3 knots; 1.6 m/s)
Visibility: 4 miles (6 km)
Ceiling: 8500 feet AGL
Clouds: scattered clouds at 4700 feet AGL
broken clouds at 8500 feet AGL
overcast cloud deck at 9000 feet AGL
Present Weather: RA BR  (rain, mist)
KCTY 231355Z AUTO 17003KT 4SM RA BR SCT047 BKN085 OVC090 23/23 A3010 RMK AO2 LTG DSNT E THRU SW P0010 T02340228

Conditions at: KCTY observed 23 July 2017  13:35 UTC
Temperature: 23.5°C (74°F)
Dewpoint: 22.4°C (72°F) [RH = 94%]
Pressure (altimeter): 30.11 inches Hg (1019.7 mb)
Winds: calm
Visibility: 3 miles (5 km)
Ceiling: 6000 feet AGL
Clouds: scattered clouds at 2300 feet AGL
overcast cloud deck at 6000 feet AGL
Present Weather: RA BR  (rain, mist)
KCTY 231335Z AUTO 00000KT 3SM RA BR SCT023 OVC060 23/22 A3011 RMK AO2 LTG DSNT E THRU W P0005 T02350224

Conditions at: KCTY observed 23 July 2017  13:15 UTC
Temperature: 23.3°C (74°F)
Dewpoint: 22.6°C (73°F) [RH = 96%]
Pressure (altimeter): 30.11 inches Hg (1019.7 mb)
Winds: from the SE (140 degrees) at 5 MPH (4 knots; 2.1 m/s)
Visibility: 10 or more miles (16+ km)
Ceiling: 2500 feet AGL
Clouds: scattered clouds at 800 feet AGL
broken clouds at 2500 feet AGL
overcast cloud deck at 7000 feet AGL
Present Weather: VCTS -RA  (thunderstorm in vicinity, light rain)
KCTY 231315Z AUTO 14004KT 10SM -VCTSRA SCT008 BKN025 OVC070 23/23 A3011 RMK AO2 LTG DSNT SW AND W P0001 T02330226

Conditions at: KCTY observed 23 July 2017  12:55 UTC
Temperature: 23.2°C (74°F)
Dewpoint: 22.4°C (72°F) [RH = 95%]
Pressure (altimeter): 30.11 inches Hg (1019.7 mb)
Winds: calm
Visibility: 10 or more miles (16+ km)
Ceiling: 2700 feet AGL
Clouds: scattered clouds at 500 feet AGL
overcast cloud deck at 2700 feet AGL
Present Weather: -TSRA  (light rain associated with thunderstorm(s))
KCTY 231255Z AUTO 00000KT 10SM -TSRA SCT005 OVC027 23/22 A3011 RMK AO2 LTG DSNT S THRU W P0002 T02320224

Conditions at: KCTY observed 23 July 2017  12:35 UTC
Temperature: 23.4°C (74°F)
Dewpoint: 22.6°C (73°F) [RH = 95%]
Pressure (altimeter): 30.10 inches Hg (1019.4 mb)
Winds: from the NE (40 degrees) at 3 MPH (3 knots; 1.6 m/s)
Visibility: 10 or more miles (16+ km)
Ceiling: 2500 feet AGL
Clouds: scattered clouds at 500 feet AGL
broken clouds at 2500 feet AGL
overcast cloud deck at 8000 feet AGL
Present Weather: VCTS -RA  (thunderstorm in vicinity, light rain)
KCTY 231235Z AUTO 04003KT 10SM -VCTSRA SCT005 BKN025 OVC080 23/23 A3010 RMK AO2 LTG DSNT S THRU NW P0002 T02340226

Conditions at: KCTY observed 23 July 2017  12:15 UTC
Temperature: 23.3°C (74°F)
Dewpoint: 22.4°C (72°F) [RH = 95%]
Pressure (altimeter): 30.09 inches Hg (1019.0 mb)
Winds: calm
Visibility: 10 or more miles (16+ km)
Ceiling: 9000 feet AGL
Clouds: scattered clouds at 7500 feet AGL
broken clouds at 9000 feet AGL
overcast cloud deck at 11000 feet AGL
Present Weather: -RA  (light rain)
KCTY 231215Z AUTO 00000KT 10SM -RA SCT075 BKN090 OVC110 23/22 A3009 RMK AO2 LTG DSNT S AND NW P0001 T02330224

Conditions at: KCTY observed 23 July 2017  11:55 UTC
Temperature: 23.2°C (74°F)
Dewpoint: 22.4°C (72°F) [RH = 95%]
Pressure (altimeter): 30.08 inches Hg (1018.7 mb)
Winds: calm
Visibility: 10 or more miles (16+ km)
Ceiling: 10000 feet AGL
Clouds: broken clouds at 10000 feet AGL
broken clouds at 12000 feet AGL
Present Weather: RA  (rain)
KCTY 231155Z AUTO 00000KT 10SM RA BKN100 BKN120 23/22 A3008 RMK AO2 LTG DSNT S AND NW P0004 T02320224 10246 20227 60114 70196

Conditions at: KCTY observed 23 July 2017  11:35 UTC
Temperature: 23.1°C (74°F)
Dewpoint: 22.2°C (72°F) [RH = 95%]
Pressure (altimeter): 30.06 inches Hg (1018.0 mb)
Winds: from the W (280 degrees) at 3 MPH (3 knots; 1.6 m/s)
Visibility: 10 or more miles (16+ km)
Ceiling: 12000 feet AGL
Clouds: scattered clouds at 10000 feet AGL
broken clouds at 12000 feet AGL
Present Weather: VCTS -RA  (thunderstorm in vicinity, light rain)
KCTY 231135Z AUTO 28003KT 10SM -VCTSRA SCT100 BKN120 23/22 A3006 RMK AO2 LTG DSNT S THRU W P0002 T02310222

Conditions at: KCTY observed 23 July 2017  11:15 UTC
Temperature: 23.1°C (74°F)
Dewpoint: 22.5°C (72°F) [RH = 96%]
Pressure (altimeter): 30.06 inches Hg (1018.0 mb)
Winds: from the NW (310 degrees) at 5 MPH (4 knots; 2.1 m/s)
Visibility: 10 or more miles (16+ km)
Ceiling: 10000 feet AGL
Clouds: scattered clouds at 1200 feet AGL
overcast cloud deck at 10000 feet AGL
Present Weather: VCTS -RA  (thunderstorm in vicinity, light rain)
KCTY 231115Z AUTO 31004KT 10SM -VCTSRA SCT012 OVC100 23/23 A3006 RMK AO2 LTG DSNT S THRU NW P0002 T02310225

Conditions at: KCTY observed 23 July 2017  10:55 UTC
Temperature: 23.1°C (74°F)
Dewpoint: 22.8°C (73°F) [RH = 98%]
Pressure (altimeter): 30.06 inches Hg (1018.0 mb)
Winds: from the WSW (240 degrees) at 5 MPH (4 knots; 2.1 m/s)
Visibility: 7 miles (11 km)
Ceiling: 10000 feet AGL
Clouds: scattered clouds at 600 feet AGL
scattered clouds at 1700 feet AGL
overcast cloud deck at 10000 feet AGL
Present Weather: RA  (rain)
KCTY 231055Z AUTO 24004KT 7SM RA SCT006 SCT017 OVC100 23/23 A3006 RMK AO2 LTG DSNT ALQDS P0007 T02310228

Conditions at: KCTY observed 23 July 2017  10:35 UTC
Temperature: 23.1°C (74°F)
Dewpoint: 22.7°C (73°F) [RH = 98%]
Pressure (altimeter): 30.06 inches Hg (1018.0 mb)
Winds: from the WSW (250 degrees) at 3 MPH (3 knots; 1.6 m/s)
Visibility: 10 or more miles (16+ km)
Ceiling: 7000 feet AGL
Clouds: scattered clouds at 4300 feet AGL
scattered clouds at 5500 feet AGL
broken clouds at 7000 feet AGL
Present Weather: -TSRA  (light rain associated with thunderstorm(s))
KCTY 231035Z AUTO 25003KT 10SM -TSRA SCT043 SCT055 BKN070 23/23 A3006 RMK AO2 LTG DSNT SE THRU W P0005 T02310227

Conditions at: KCTY observed 23 July 2017  10:15 UTC
Temperature: 23.0°C (73°F)
Dewpoint: 22.6°C (73°F) [RH = 98%]
Pressure (altimeter): 30.06 inches Hg (1018.0 mb)
Winds: calm
Visibility: 5 miles (8 km)
Ceiling: 10000 feet AGL
Clouds: scattered clouds at 700 feet AGL
scattered clouds at 5500 feet AGL
broken clouds at 10000 feet AGL
Present Weather: TSRA BR  (rain associated with thunderstorm(s), mist)
KCTY 231015Z AUTO 00000KT 5SM TSRA BR SCT007 SCT055 BKN100 23/23 A3006 RMK AO2 LTG DSNT S THRU NW P0003 T02300226

Conditions at: KCTY observed 23 July 2017  09:55 UTC
Temperature: 23.0°C (73°F)
Dewpoint: 22.6°C (73°F) [RH = 98%]
Pressure (altimeter): 30.05 inches Hg (1017.7 mb)
Winds: from the W (270 degrees) at 5 MPH (4 knots; 2.1 m/s)
Visibility: 10 or more miles (16+ km)
Ceiling: 7500 feet AGL
Clouds: scattered clouds at 300 feet AGL
scattered clouds at 2700 feet AGL
broken clouds at 7500 feet AGL
Present Weather: -RA  (light rain)
KCTY 230955Z AUTO 27004KT 10SM -RA SCT003 SCT027 BKN075 23/23 A3005 RMK AO2 LTG DSNT SW THRU NW P0005 T02300226

Conditions at: KCTY observed 23 July 2017  09:35 UTC
Temperature: 23.0°C (73°F)
Dewpoint: 22.6°C (73°F) [RH = 98%]
Pressure (altimeter): 30.05 inches Hg (1017.7 mb)
Winds: from the SW (230 degrees) at 3 MPH (3 knots; 1.6 m/s)
Visibility: 10 or more miles (16+ km)
Ceiling: 7500 feet AGL
Clouds: scattered clouds at 2700 feet AGL
scattered clouds at 5000 feet AGL
broken clouds at 7500 feet AGL
Present Weather: -TSRA  (light rain associated with thunderstorm(s))
KCTY 230935Z AUTO 23003KT 10SM -TSRA SCT027 SCT050 BKN075 23/23 A3005 RMK AO2 LTG DSNT SW THRU NW P0005 T02300226

Conditions at: KCTY observed 23 July 2017  09:15 UTC
Temperature: 22.9°C (73°F)
Dewpoint: 22.4°C (72°F) [RH = 97%]
Pressure (altimeter): 30.05 inches Hg (1017.7 mb)
Winds: calm
Visibility: 4 miles (6 km)
Ceiling: 7500 feet AGL
Clouds: scattered clouds at 6000 feet AGL
broken clouds at 7500 feet AGL
overcast cloud deck at 12000 feet AGL
Present Weather: VCTS RA BR  (thunderstorm in vicinity, rain, mist)
KCTY 230915Z AUTO 00000KT 4SM VCTSRA BR SCT060 BKN075 OVC120 23/22 A3005 RMK AO2 LTG DSNT S THRU W P0003 T02290224

Conditions at: KCTY observed 23 July 2017  08:55 UTC
Temperature: 22.8°C (73°F)
Dewpoint: 22.3°C (72°F) [RH = 97%]
Pressure (altimeter): 30.05 inches Hg (1017.7 mb)
Winds: from the E (90 degrees) at 3 MPH (3 knots; 1.6 m/s)
Visibility: 10 or more miles (16+ km)
Ceiling: 12000 feet AGL
Clouds: scattered clouds at 8000 feet AGL
scattered clouds at 9000 feet AGL
broken clouds at 12000 feet AGL
Present Weather: VCTS -RA  (thunderstorm in vicinity, light rain)
KCTY 230855Z AUTO 09003KT 10SM -VCTSRA SCT080 SCT090 BKN120 23/22 A3005 RMK AO2 LTG DSNT S THRU NW P0042 T02280223 60098

Conditions at: KCTY observed 23 July 2017  08:35 UTC
Temperature: 22.8°C (73°F)
Dewpoint: 22.2°C (72°F) [RH = 96%]
Pressure (altimeter): 30.05 inches Hg (1017.7 mb)
Winds: from the ESE (110 degrees) at 5 MPH (4 knots; 2.1 m/s)
Visibility: 10 or more miles (16+ km)
Ceiling: 8000 feet AGL
Clouds: scattered clouds at 2200 feet AGL
broken clouds at 8000 feet AGL
overcast cloud deck at 12000 feet AGL
Present Weather: VCTS -RA  (thunderstorm in vicinity, light rain)
KCTY 230835Z AUTO 11004KT 10SM -VCTSRA SCT022 BKN080 OVC120 23/22 A3005 RMK AO2 LTG DSNT ALQDS P0042 T02280222

Conditions at: KCTY observed 23 July 2017  08:15 UTC
Temperature: 23.0°C (73°F)
Dewpoint: 22.3°C (72°F) [RH = 96%]
Pressure (altimeter): 30.06 inches Hg (1018.0 mb)
Winds: from the W (280 degrees) at 8 MPH (7 knots; 3.6 m/s)
Visibility: 4 miles (6 km)
Ceiling: 2400 feet AGL
Clouds: scattered clouds at 1000 feet AGL
broken clouds at 2400 feet AGL
overcast cloud deck at 3200 feet AGL
Present Weather: +TSRA BR  (heavy rain associated with thunderstorm(s), mist)
KCTY 230815Z AUTO 28007KT 4SM +TSRA BR SCT010 BKN024 OVC032 23/22 A3006 RMK AO2 LTG DSNT ALQDS P0028 T02300223

Conditions at: KCTY observed 23 July 2017  07:55 UTC
Temperature: 23.5°C (74°F)
Dewpoint: 22.8°C (73°F) [RH = 96%]
Pressure (altimeter): 30.06 inches Hg (1018.0 mb)
Winds: from the NNW (330 degrees) at 8 MPH (7 knots; 3.6 m/s)
Visibility: 1.75 miles (2.82 km)
Ceiling: 1300 feet AGL
Clouds: scattered clouds at 900 feet AGL
broken clouds at 1300 feet AGL
overcast cloud deck at 2400 feet AGL
Present Weather: +TSRA BR  (heavy rain associated with thunderstorm(s), mist)
KCTY 230755Z AUTO 33007KT 1 3/4SM +TSRA BR SCT009 BKN013 OVC024 24/23 A3006 RMK AO2 LTG DSNT ALQDS P0047 T02350228

Conditions at: KCTY observed 23 July 2017  07:35 UTC
Temperature: 24.4°C (76°F)
Dewpoint: 23.7°C (75°F) [RH = 96%]
Pressure (altimeter): 30.05 inches Hg (1017.7 mb)
Winds: calm
Visibility: 10 or more miles (16+ km)
Ceiling: at least 12,000 feet AGL
Clouds: scattered clouds at 2400 feet AGL
scattered clouds at 3400 feet AGL
Present Weather: TS  (thunderstorm)
KCTY 230735Z AUTO 00000KT 10SM TS SCT024 SCT034 24/24 A3005 RMK AO2 LTG DSNT SE THRU NW T02440237

Conditions at: KCTY observed 23 July 2017  07:15 UTC
Temperature: 24.3°C (76°F)
Dewpoint: 23.9°C (75°F) [RH = 98%]
Pressure (altimeter): 30.05 inches Hg (1017.7 mb)
Winds: from the SE (140 degrees) at 5 MPH (4 knots; 2.1 m/s)
Visibility: 10 or more miles (16+ km)
Ceiling: at least 12,000 feet AGL
Clouds: scattered clouds at 2400 feet AGL
scattered clouds at 3400 feet AGL
Present Weather: TS  (thunderstorm)
KCTY 230715Z AUTO 14004KT 10SM TS SCT024 SCT034 24/24 A3005 RMK AO2 LTG DSNT ALQDS T02430239

Conditions at: KCTY observed 23 July 2017  06:55 UTC
Temperature: 24.0°C (75°F)
Dewpoint: 24.0°C (75°F) [RH = 100%]
Pressure (altimeter): 30.04 inches Hg (1017.4 mb)
Winds: from the E (100 degrees) at 5 MPH (4 knots; 2.1 m/s)
Visibility: 10 or more miles (16+ km)
Ceiling: at least 12,000 feet AGL
Clouds: scattered clouds at 2600 feet AGL
Present Weather: VCTS  (thunderstorm in vicinity)
KCTY 230655Z AUTO 10004KT 10SM VCTS SCT026 24/24 A3004 RMK AO2 LTG DSNT S THRU NW P0002

Conditions at: KCTY observed 23 July 2017  06:35 UTC
Temperature: 24.6°C (76°F)
Dewpoint: 24.1°C (75°F) [RH = 97%]
Pressure (altimeter): 30.05 inches Hg (1017.7 mb)
Winds: from the NNE (20 degrees) at 5 MPH (4 knots; 2.1 m/s)
Visibility: 10 or more miles (16+ km)
Ceiling: at least 12,000 feet AGL
Clouds: scattered clouds at 2600 feet AGL
scattered clouds at 3900 feet AGL
scattered clouds at 8500 feet AGL
Present Weather: TS  (thunderstorm)
KCTY 230635Z AUTO 02004KT 10SM TS SCT026 SCT039 SCT085 25/24 A3005 RMK AO2 LTG DSNT SE AND S P0002 T02460241

Conditions at: KCTY observed 23 July 2017  06:15 UTC
Temperature: 24.6°C (76°F)
Dewpoint: 24.2°C (76°F) [RH = 98%]
Pressure (altimeter): 30.06 inches Hg (1018.0 mb)
Winds: from the SSE (160 degrees) at 3 MPH (3 knots; 1.6 m/s)
Visibility: 7 miles (11 km)
Ceiling: 8000 feet AGL
Clouds: scattered clouds at 2800 feet AGL
scattered clouds at 3900 feet AGL
broken clouds at 8000 feet AGL
Present Weather: VCTS -RA BR  (thunderstorm in vicinity, light rain, mist)
KCTY 230615Z AUTO 16003KT 7SM -VCTSRA BR SCT028 SCT039 BKN080 25/24 A3006 RMK AO2 LTG DSNT S THRU W P0002 T02460242

Conditions at: KCTY observed 23 July 2017  05:55 UTC
Temperature: 24.6°C (76°F)
Dewpoint: 24.2°C (76°F) [RH = 98%]
Pressure (altimeter): 30.06 inches Hg (1018.0 mb)
Winds: calm
Visibility: 10 or more miles (16+ km)
Ceiling: at least 12,000 feet AGL
Clouds: sky clear below 12,000 feet AGL
Present Weather: automated observation with no human augmentation;
there may or may not be significant weather present at this time
KCTY 230555Z AUTO 00000KT 10SM CLR 25/24 A3006 RMK AO2 LTG DSNT W T02460242 10254 20241

Conditions at: KCTY observed 23 July 2017  05:35 UTC
Temperature: 24.6°C (76°F)
Dewpoint: 24.2°C (76°F) [RH = 98%]
Pressure (altimeter): 30.07 inches Hg (1018.4 mb)
Winds: calm
Visibility: 10 or more miles (16+ km)
Ceiling: at least 12,000 feet AGL
Clouds: scattered clouds at 2700 feet AGL
scattered clouds at 3100 feet AGL
scattered clouds at 4700 feet AGL
Present Weather: automated observation with no human augmentation;
there may or may not be significant weather present at this time
KCTY 230535Z AUTO 00000KT 10SM SCT027 SCT031 SCT047 25/24 A3007 RMK AO2 T02460242

Conditions at: KCTY observed 23 July 2017  05:15 UTC
Temperature: 24.7°C (76°F)
Dewpoint: 24.3°C (76°F) [RH = 98%]
Pressure (altimeter): 30.07 inches Hg (1018.4 mb)
Winds: calm
Visibility: 10 or more miles (16+ km)
Ceiling: 4000 feet AGL
Clouds: scattered clouds at 2600 feet AGL
scattered clouds at 3300 feet AGL
broken clouds at 4000 feet AGL
Present Weather: automated observation with no human augmentation;
there may or may not be significant weather present at this time
KCTY 230515Z AUTO 00000KT 10SM SCT026 SCT033 BKN040 25/24 A3007 RMK AO2 T02470243

Conditions at: KCTY observed 23 July 2017  04:55 UTC
Temperature: 24.5°C (76°F)
Dewpoint: 24.1°C (75°F) [RH = 98%]
Pressure (altimeter): 30.07 inches Hg (1018.4 mb)
Winds: calm
Visibility: 10 or more miles (16+ km)
Ceiling: at least 12,000 feet AGL
Clouds: sky clear below 12,000 feet AGL
Present Weather: automated observation with no human augmentation;
there may or may not be significant weather present at this time
KCTY 230455Z AUTO 00000KT 10SM CLR 25/24 A3007 RMK AO2 T02450241

Conditions at: KCTY observed 23 July 2017  04:35 UTC
Temperature: 24.5°C (76°F)
Dewpoint: 24.0°C (75°F) [RH = 97%]
Pressure (altimeter): 30.07 inches Hg (1018.4 mb)
Winds: calm
Visibility: 10 or more miles (16+ km)
Ceiling: at least 12,000 feet AGL
Clouds: scattered clouds at 2300 feet AGL
scattered clouds at 3300 feet AGL
scattered clouds at 3900 feet AGL
Present Weather: automated observation with no human augmentation;
there may or may not be significant weather present at this time
KCTY 230435Z AUTO 00000KT 10SM SCT023 SCT033 SCT039 24/24 A3007 RMK AO2 T02450240

Conditions at: KCTY observed 23 July 2017  04:15 UTC
Temperature: 24.5°C (76°F)
Dewpoint: 24.0°C (75°F) [RH = 97%]
Pressure (altimeter): 30.07 inches Hg (1018.4 mb)
Winds: calm
Visibility: 10 or more miles (16+ km)
Ceiling: at least 12,000 feet AGL
Clouds: scattered clouds at 2300 feet AGL
Present Weather: automated observation with no human augmentation;
there may or may not be significant weather present at this time
KCTY 230415Z AUTO 00000KT 10SM SCT023 24/24 A3007 RMK AO2 T02450240

Conditions at: KCTY observed 23 July 2017  03:55 UTC
Temperature: 24.4°C (76°F)
Dewpoint: 24.0°C (75°F) [RH = 98%]
Pressure (altimeter): 30.07 inches Hg (1018.4 mb)
Winds: calm
Visibility: 10 or more miles (16+ km)
Ceiling: at least 12,000 feet AGL
Clouds: scattered clouds at 2500 feet AGL
Present Weather: automated observation with no human augmentation;
there may or may not be significant weather present at this time
KCTY 230355Z AUTO 00000KT 10SM SCT025 24/24 A3007 RMK AO2 T02440240

Conditions at: KCTY observed 23 July 2017  03:35 UTC
Temperature: 24.3°C (76°F)
Dewpoint: 23.9°C (75°F) [RH = 98%]
Pressure (altimeter): 30.07 inches Hg (1018.4 mb)
Winds: from the SSE (150 degrees) at 3 MPH (3 knots; 1.6 m/s)
Visibility: 10 or more miles (16+ km)
Ceiling: at least 12,000 feet AGL
Clouds: sky clear below 12,000 feet AGL
Present Weather: automated observation with no human augmentation;
there may or may not be significant weather present at this time
KCTY 230335Z AUTO 15003KT 10SM CLR 24/24 A3007 RMK AO2 T02430239

Conditions at: KCTY observed 23 July 2017  03:15 UTC
Temperature: 24.4°C (76°F)
Dewpoint: 24.0°C (75°F) [RH = 98%]
Pressure (altimeter): 30.07 inches Hg (1018.4 mb)
Winds: calm
Visibility: 10 or more miles (16+ km)
Ceiling: at least 12,000 feet AGL
Clouds: sky clear below 12,000 feet AGL
Present Weather: automated observation with no human augmentation;
there may or may not be significant weather present at this time
KCTY 230315Z AUTO 00000KT 10SM CLR 24/24 A3007 RMK AO2 T02440240

Conditions at: KCTY observed 23 July 2017  02:55 UTC
Temperature: 24.2°C (76°F)
Dewpoint: 23.8°C (75°F) [RH = 98%]
Pressure (altimeter): 30.07 inches Hg (1018.4 mb)
Winds: calm
Visibility: 10 or more miles (16+ km)
Ceiling: at least 12,000 feet AGL
Clouds: sky clear below 12,000 feet AGL
Present Weather: automated observation with no human augmentation;
there may or may not be significant weather present at this time
KCTY 230255Z AUTO 00000KT 10SM CLR 24/24 A3007 RMK AO2 T02420238

Conditions at: KCTY observed 23 July 2017  02:35 UTC
Temperature: 24.2°C (76°F)
Dewpoint: 23.9°C (75°F) [RH = 98%]
Pressure (altimeter): 30.07 inches Hg (1018.4 mb)
Winds: calm
Visibility: 10 or more miles (16+ km)
Ceiling: at least 12,000 feet AGL
Clouds: sky clear below 12,000 feet AGL
Present Weather: automated observation with no human augmentation;
there may or may not be significant weather present at this time
KCTY 230235Z AUTO 00000KT 10SM CLR 24/24 A3007 RMK AO2 T02420239

Conditions at: KCTY observed 23 July 2017  02:15 UTC
Temperature: 24.2°C (76°F)
Dewpoint: 23.8°C (75°F) [RH = 98%]
Pressure (altimeter): 30.07 inches Hg (1018.4 mb)
Winds: calm
Visibility: 10 or more miles (16+ km)
Ceiling: at least 12,000 feet AGL
Clouds: sky clear below 12,000 feet AGL
Present Weather: automated observation with no human augmentation;
there may or may not be significant weather present at this time
KCTY 230215Z AUTO 00000KT 10SM CLR 24/24 A3007 RMK AO2 T02420238

Conditions at: KCTY observed 23 July 2017  01:55 UTC
Temperature: 24.3°C (76°F)
Dewpoint: 23.8°C (75°F) [RH = 97%]
Pressure (altimeter): 30.06 inches Hg (1018.0 mb)
Winds: from the S (180 degrees) at 3 MPH (3 knots; 1.6 m/s)
Visibility: 10 or more miles (16+ km)
Ceiling: at least 12,000 feet AGL
Clouds: sky clear below 12,000 feet AGL
Present Weather: automated observation with no human augmentation;
there may or may not be significant weather present at this time
KCTY 230155Z AUTO 18003KT 10SM CLR 24/24 A3006 RMK AO2 T02430238

Conditions at: KCTY observed 23 July 2017  01:35 UTC
Temperature: 24.5°C (76°F)
Dewpoint: 23.9°C (75°F) [RH = 96%]
Pressure (altimeter): 30.06 inches Hg (1018.0 mb)
Winds: from the N (10 degrees) at 3 MPH (3 knots; 1.6 m/s)
Visibility: 10 or more miles (16+ km)
Ceiling: at least 12,000 feet AGL
Clouds: sky clear below 12,000 feet AGL
Present Weather: automated observation with no human augmentation;
there may or may not be significant weather present at this time
KCTY 230135Z AUTO 01003KT 10SM CLR 24/24 A3006 RMK AO2 T02450239

Conditions at: KCTY observed 23 July 2017  01:15 UTC
Temperature: 24.8°C (77°F)
Dewpoint: 23.9°C (75°F) [RH = 95%]
Pressure (altimeter): 30.07 inches Hg (1018.4 mb)
Winds: calm
Visibility: 10 or more miles (16+ km)
Ceiling: at least 12,000 feet AGL
Clouds: sky clear below 12,000 feet AGL
Present Weather: automated observation with no human augmentation;
there may or may not be significant weather present at this time
KCTY 230115Z AUTO 00000KT 10SM CLR 25/24 A3007 RMK AO2 T02480239

Conditions at: KCTY observed 23 July 2017  00:55 UTC
Temperature: 24.7°C (76°F)
Dewpoint: 23.8°C (75°F) [RH = 95%]
Pressure (altimeter): 30.06 inches Hg (1018.0 mb)
Winds: from the SSW (210 degrees) at 5 MPH (4 knots; 2.1 m/s)
Visibility: 10 or more miles (16+ km)
Ceiling: at least 12,000 feet AGL
Clouds: sky clear below 12,000 feet AGL
Present Weather: automated observation with no human augmentation;
there may or may not be significant weather present at this time
KCTY 230055Z AUTO 21004KT 10SM CLR 25/24 A3006 RMK AO2 T02470238

Conditions at: KCTY observed 23 July 2017  00:35 UTC
Temperature: 24.7°C (76°F)
Dewpoint: 23.7°C (75°F) [RH = 94%]
Pressure (altimeter): 30.06 inches Hg (1018.0 mb)
Winds: from the S (170 degrees) at 5 MPH (4 knots; 2.1 m/s)
Visibility: 10 or more miles (16+ km)
Ceiling: at least 12,000 feet AGL
Clouds: scattered clouds at 2200 feet AGL
scattered clouds at 8000 feet AGL
Present Weather: automated observation with no human augmentation;
there may or may not be significant weather present at this time
KCTY 230035Z AUTO 17004KT 10SM SCT022 SCT080 25/24 A3006 RMK AO2 T02470237

Conditions at: KCTY observed 23 July 2017  00:15 UTC
Temperature: 25.0°C (77°F)
Dewpoint: 23.9°C (75°F) [RH = 94%]
Pressure (altimeter): 30.06 inches Hg (1018.0 mb)
Winds: from the S (190 degrees) at 6 MPH (5 knots; 2.6 m/s)
Visibility: 10 or more miles (16+ km)
Ceiling: 7500 feet AGL
Clouds: scattered clouds at 2200 feet AGL
overcast cloud deck at 7500 feet AGL
Present Weather: automated observation with no human augmentation;
there may or may not be significant weather present at this time
KCTY 230015Z AUTO 19005KT 10SM SCT022 OVC075 25/24 A3006 RMK AO2 LTG DSNT SW T02500239

Conditions at: KCTY observed 22 July 2017  23:55 UTC
Temperature: 25.3°C (78°F)
Dewpoint: 24.0°C (75°F) [RH = 93%]
Pressure (altimeter): 30.06 inches Hg (1018.0 mb)
Winds: from the SE (140 degrees) at 3 MPH (3 knots; 1.6 m/s)
Visibility: 10 or more miles (16+ km)
Ceiling: 7000 feet AGL
Clouds: scattered clouds at 3500 feet AGL
broken clouds at 7000 feet AGL
overcast cloud deck at 7500 feet AGL
Present Weather: automated observation with no human augmentation;
there may or may not be significant weather present at this time
KCTY 222355Z AUTO 14003KT 10SM SCT035 BKN070 OVC075 25/24 A3006 RMK AO2 LTG DSNT S AND SW P0001 T02530240 10258 20238 403090217 60018

Conditions at: KCTY observed 22 July 2017  23:35 UTC
Temperature: 25.8°C (78°F)
Dewpoint: 24.9°C (77°F) [RH = 95%]
Pressure (altimeter): 30.07 inches Hg (1018.4 mb)
Winds: from the SW (230 degrees) at 8 MPH (7 knots; 3.6 m/s)
Visibility: 7 miles (11 km)
Ceiling: 2100 feet AGL
Clouds: scattered clouds at 700 feet AGL
broken clouds at 2100 feet AGL
overcast cloud deck at 3400 feet AGL
Present Weather: RA  (rain)
KCTY 222335Z AUTO 23007KT 170V240 7SM RA SCT007 BKN021 OVC034 26/25 A3007 RMK AO2 LTG DSNT S AND SW T02580249

Conditions at: KCTY observed 22 July 2017  23:15 UTC
Temperature: 25.7°C (78°F)
Dewpoint: 24.9°C (77°F) [RH = 95%]
Pressure (altimeter): 30.07 inches Hg (1018.4 mb)
Winds: from the S (170 degrees) at 5 MPH (4 knots; 2.1 m/s)
Visibility: 10 or more miles (16+ km)
Ceiling: 2100 feet AGL
Clouds: broken clouds at 2100 feet AGL
broken clouds at 2600 feet AGL
overcast cloud deck at 6500 feet AGL
Present Weather: automated observation with no human augmentation;
there may or may not be significant weather present at this time
KCTY 222315Z AUTO 17004KT 10SM BKN021 BKN026 OVC065 26/25 A3007 RMK AO2 LTG DSNT SW T02570249

Conditions at: KCTY observed 22 July 2017  22:55 UTC
Temperature: 25.8°C (78°F)
Dewpoint: 24.9°C (77°F) [RH = 95%]
Pressure (altimeter): 30.07 inches Hg (1018.4 mb)
Winds: from the S (170 degrees) at 6 MPH (5 knots; 2.6 m/s)
Visibility: 10 or more miles (16+ km)
Ceiling: at least 12,000 feet AGL
Clouds: scattered clouds at 2100 feet AGL
scattered clouds at 2500 feet AGL
scattered clouds at 4100 feet AGL
Present Weather: VCTS  (thunderstorm in vicinity)
KCTY 222255Z AUTO 17005KT 10SM VCTS SCT021 SCT025 SCT041 26/25 A3007 RMK AO2 LTG DSNT S AND SW T02580249

Conditions at: KCTY observed 22 July 2017  22:35 UTC
Temperature: 26.0°C (79°F)
Dewpoint: 25.0°C (77°F) [RH = 94%]
Pressure (altimeter): 30.07 inches Hg (1018.4 mb)
Winds: from the SSE (150 degrees) at 3 MPH (3 knots; 1.6 m/s)
Visibility: 10 or more miles (16+ km)
Ceiling: at least 12,000 feet AGL
Clouds: sky clear below 12,000 feet AGL
Present Weather: automated observation with no human augmentation;
there may or may not be significant weather present at this time
KCTY 222235Z AUTO 15003KT 10SM CLR 26/25 A3007 RMK AO2

Conditions at: KCTY observed 22 July 2017  22:15 UTC
Temperature: 25.6°C (78°F)
Dewpoint: 24.6°C (76°F) [RH = 94%]
Pressure (altimeter): 30.07 inches Hg (1018.4 mb)
Winds: calm
Visibility: 10 or more miles (16+ km)
Ceiling: at least 12,000 feet AGL
Clouds: sky clear below 12,000 feet AGL
Present Weather: automated observation with no human augmentation;
there may or may not be significant weather present at this time
KCTY 222215Z AUTO 00000KT 10SM CLR 26/25 A3007 RMK AO2 T02560246

Conditions at: KCTY observed 22 July 2017  21:55 UTC
Temperature: 25.6°C (78°F)
Dewpoint: 24.4°C (76°F) [RH = 93%]
Pressure (altimeter): 30.08 inches Hg (1018.7 mb)
Winds: calm
Visibility: 10 or more miles (16+ km)
Ceiling: at least 12,000 feet AGL
Clouds: sky clear below 12,000 feet AGL
Present Weather: automated observation with no human augmentation;
there may or may not be significant weather present at this time
KCTY 222155Z AUTO 00000KT 10SM CLR 26/24 A3008 RMK AO2 T02560244

Conditions at: KCTY observed 22 July 2017  21:35 UTC
Temperature: 25.7°C (78°F)
Dewpoint: 24.5°C (76°F) [RH = 93%]
Pressure (altimeter): 30.07 inches Hg (1018.4 mb)
Winds: calm
Visibility: 10 or more miles (16+ km)
Ceiling: at least 12,000 feet AGL
Clouds: sky clear below 12,000 feet AGL
Present Weather: automated observation with no human augmentation;
there may or may not be significant weather present at this time
KCTY 222135Z AUTO 00000KT 10SM CLR 26/25 A3007 RMK AO2 T02570245

Conditions at: KCTY observed 22 July 2017  21:15 UTC
Temperature: 25.6°C (78°F)
Dewpoint: 24.4°C (76°F) [RH = 93%]
Pressure (altimeter): 30.06 inches Hg (1018.0 mb)
Winds: calm
Visibility: 10 or more miles (16+ km)
Ceiling: at least 12,000 feet AGL
Clouds: sky clear below 12,000 feet AGL
Present Weather: automated observation with no human augmentation;
there may or may not be significant weather present at this time
KCTY 222115Z AUTO 00000KT 10SM CLR 26/24 A3006 RMK AO2 T02560244

Conditions at: KCTY observed 22 July 2017  20:55 UTC
Temperature: 25.5°C (78°F)
Dewpoint: 24.2°C (76°F) [RH = 93%]
Pressure (altimeter): 30.06 inches Hg (1018.0 mb)
Winds: calm
Visibility: 10 or more miles (16+ km)
Ceiling: at least 12,000 feet AGL
Clouds: sky clear below 12,000 feet AGL
Present Weather: automated observation with no human augmentation;
there may or may not be significant weather present at this time
KCTY 222055Z AUTO 00000KT 10SM CLR 25/24 A3006 RMK AO2 LTG DSNT E T02550242 60017

Conditions at: KCTY observed 22 July 2017  20:35 UTC
Temperature: 25.4°C (78°F)
Dewpoint: 24.4°C (76°F) [RH = 94%]
Pressure (altimeter): 30.07 inches Hg (1018.4 mb)
Winds: calm
Visibility: 10 or more miles (16+ km)
Ceiling: at least 12,000 feet AGL
Clouds: sky clear below 12,000 feet AGL
Present Weather: automated observation with no human augmentation;
there may or may not be significant weather present at this time
KCTY 222035Z AUTO 00000KT 10SM CLR 25/24 A3007 RMK AO2 LTG DSNT N E AND S T02540244

Conditions at: KCTY observed 22 July 2017  20:15 UTC
Temperature: 25.2°C (77°F)
Dewpoint: 24.1°C (75°F) [RH = 94%]
Pressure (altimeter): 30.07 inches Hg (1018.4 mb)
Winds: calm
Visibility: 10 or more miles (16+ km)
Ceiling: at least 12,000 feet AGL
Clouds: sky clear below 12,000 feet AGL
Present Weather: automated observation with no human augmentation;
there may or may not be significant weather present at this time
KCTY 222015Z AUTO 00000KT 10SM CLR 25/24 A3007 RMK AO2 LTG DSNT NE T02520241

Conditions at: KCTY observed 22 July 2017  19:55 UTC
Temperature: 25.1°C (77°F)
Dewpoint: 23.9°C (75°F) [RH = 93%]
Pressure (altimeter): 30.08 inches Hg (1018.7 mb)
Winds: from the S (190 degrees) at 5 MPH (4 knots; 2.1 m/s)
Visibility: 10 or more miles (16+ km)
Ceiling: at least 12,000 feet AGL
Clouds: scattered clouds at 3500 feet AGL
scattered clouds at 4100 feet AGL
scattered clouds at 6000 feet AGL
Present Weather: -RA  (light rain)
KCTY 221955Z AUTO 19004KT 10SM -RA SCT035 SCT041 SCT060 25/24 A3008 RMK AO2 T02510239

Conditions at: KCTY observed 22 July 2017  19:35 UTC
Temperature: 24.7°C (76°F)
Dewpoint: 23.7°C (75°F) [RH = 94%]
Pressure (altimeter): 30.08 inches Hg (1018.7 mb)
Winds: from the SSE (150 degrees) at 3 MPH (3 knots; 1.6 m/s)
Visibility: 10 or more miles (16+ km)
Ceiling: 5000 feet AGL
Clouds: scattered clouds at 3600 feet AGL
broken clouds at 5000 feet AGL
overcast cloud deck at 8000 feet AGL
Present Weather: -RA  (light rain)
KCTY 221935Z AUTO 15003KT 10SM -RA SCT036 BKN050 OVC080 25/24 A3008 RMK AO2 LTG DSNT E AND NW T02470237

Conditions at: KCTY observed 22 July 2017  19:15 UTC
Temperature: 24.6°C (76°F)
Dewpoint: 23.6°C (74°F) [RH = 94%]
Pressure (altimeter): 30.09 inches Hg (1019.0 mb)
Winds: from the SSE (160 degrees) at 7 MPH (6 knots; 3.1 m/s)
Visibility: 10 or more miles (16+ km)
Ceiling: 8500 feet AGL
Clouds: scattered clouds at 4800 feet AGL
scattered clouds at 6000 feet AGL
broken clouds at 8500 feet AGL
Present Weather: -RA  (light rain)
KCTY 221915Z AUTO 16006KT 10SM -RA SCT048 SCT060 BKN085 25/24 A3009 RMK AO2 LTG DSNT E AND NW T02460236

Conditions at: KCTY observed 22 July 2017  18:55 UTC
Temperature: 24.6°C (76°F)
Dewpoint: 23.6°C (74°F) [RH = 94%]
Pressure (altimeter): 30.09 inches Hg (1019.0 mb)
Winds: from the S (180 degrees) at 8 MPH (7 knots; 3.6 m/s)
Visibility: 10 or more miles (16+ km)
Ceiling: at least 12,000 feet AGL
Clouds: scattered clouds at 3900 feet AGL
scattered clouds at 4900 feet AGL
Present Weather: automated observation with no human augmentation;
there may or may not be significant weather present at this time
KCTY 221855Z AUTO 18007KT 10SM SCT039 SCT049 25/24 A3009 RMK AO2 LTG DSNT NE AND E P0012 T02460236

Conditions at: KCTY observed 22 July 2017  18:35 UTC
Temperature: 24.3°C (76°F)
Dewpoint: 23.5°C (74°F) [RH = 95%]
Pressure (altimeter): 30.10 inches Hg (1019.4 mb)
Winds: from the S (190 degrees) at 5 MPH (4 knots; 2.1 m/s)
Visibility: 10 or more miles (16+ km)
Ceiling: 6000 feet AGL
Clouds: scattered clouds at 3800 feet AGL
scattered clouds at 5000 feet AGL
broken clouds at 6000 feet AGL
Present Weather: automated observation with no human augmentation;
there may or may not be significant weather present at this time
KCTY 221835Z AUTO 19004KT 10SM SCT038 SCT050 BKN060 24/23 A3010 RMK AO2 LTG DSNT NE AND E P0012 T02430235

Conditions at: KCTY observed 22 July 2017  18:15 UTC
Temperature: 23.9°C (75°F)
Dewpoint: 22.9°C (73°F) [RH = 94%]
Pressure (altimeter): 30.10 inches Hg (1019.4 mb)
Winds: from the ESE (120 degrees) at 5 MPH (4 knots; 2.1 m/s)
Visibility: 4 miles (6 km)
Ceiling: 3700 feet AGL
Clouds: scattered clouds at 1400 feet AGL
broken clouds at 3700 feet AGL
overcast cloud deck at 6000 feet AGL
Present Weather: -RA BR  (light rain, mist)
KCTY 221815Z AUTO 12004KT 4SM -RA BR SCT014 BKN037 OVC060 24/23 A3010 RMK AO2 LTG DSNT NE THRU SW P0012 T02390229

Conditions at: KCTY observed 22 July 2017  17:55 UTC
Temperature: 24.1°C (75°F)
Dewpoint: 22.9°C (73°F) [RH = 93%]
Pressure (altimeter): 30.13 inches Hg (1020.4 mb)
Winds: from the SSW (210 degrees) at 9 MPH (8 knots; 4.2 m/s)
Visibility: 2.00 miles (3.22 km)
Ceiling: 2300 feet AGL
Clouds: scattered clouds at 900 feet AGL
broken clouds at 2300 feet AGL
overcast cloud deck at 3100 feet AGL
Present Weather: +RA BR  (heavy rain, mist)
KCTY 221755Z AUTO 21008KT 2SM +RA BR SCT009 BKN023 OVC031 24/23 A3013 RMK AO2 LTG DSNT NE THRU SW P0028 T02410229 10309 20234 60064

Conditions at: KCTY observed 22 July 2017  17:35 UTC
Temperature: 25.4°C (78°F)
Dewpoint: 23.9°C (75°F) [RH = 91%]
Pressure (altimeter): 30.12 inches Hg (1020.1 mb)
Winds: from the S (170 degrees) at 8 MPH (7 knots; 3.6 m/s)
Visibility: 10 or more miles (16+ km)
Ceiling: at least 12,000 feet AGL
Clouds: sky clear below 12,000 feet AGL
Present Weather: automated observation with no human augmentation;
there may or may not be significant weather present at this time
KCTY 221735Z AUTO 17007KT 10SM CLR 25/24 A3012 RMK AO2 LTG DSNT ALQDS T02540239

Conditions at: KCTY observed 22 July 2017  17:15 UTC
Temperature: 26.7°C (80°F)
Dewpoint: 25.3°C (78°F) [RH = 92%]
Pressure (altimeter): 30.12 inches Hg (1020.1 mb)
Winds: from the ESE (120 degrees) at 6 MPH (5 knots; 2.6 m/s)
Visibility: 10 or more miles (16+ km)
Ceiling: at least 12,000 feet AGL
Clouds: scattered clouds at 3300 feet AGL
scattered clouds at 5000 feet AGL
scattered clouds at 10000 feet AGL
Present Weather: TS  (thunderstorm)
KCTY 221715Z AUTO 12005KT 10SM TS SCT033 SCT050 SCT100 27/25 A3012 RMK AO2 LTG DSNT ALQDS T02670253

Conditions at: KCTY observed 22 July 2017  16:55 UTC
Temperature: 26.8°C (80°F)
Dewpoint: 24.6°C (76°F) [RH = 88%]
Pressure (altimeter): 30.11 inches Hg (1019.7 mb)
Winds: from the E (90 degrees) at 3 MPH (3 knots; 1.6 m/s)
Visibility: 10 or more miles (16+ km)
Ceiling: 5000 feet AGL
Clouds: scattered clouds at 3500 feet AGL
broken clouds at 5000 feet AGL
broken clouds at 7500 feet AGL
Present Weather: TS  (thunderstorm)
KCTY 221655Z AUTO 09003KT 10SM TS SCT035 BKN050 BKN075 27/25 A3011 RMK AO2 LTG DSNT ALQDS P0002 T02680246

Conditions at: KCTY observed 22 July 2017  16:35 UTC
Temperature: 26.9°C (80°F)
Dewpoint: 24.8°C (77°F) [RH = 88%]
Pressure (altimeter): 30.10 inches Hg (1019.4 mb)
Winds: from the NE (40 degrees) at 3 MPH (3 knots; 1.6 m/s)
Visibility: 10 or more miles (16+ km)
Ceiling: 4800 feet AGL
Clouds: scattered clouds at 3100 feet AGL
broken clouds at 4800 feet AGL
broken clouds at 6000 feet AGL
Present Weather: VCTS  (thunderstorm in vicinity)
KCTY 221635Z AUTO 04003KT 10SM VCTS SCT031 BKN048 BKN060 27/25 A3010 RMK AO2 LTG DSNT ALQDS P0002 T02690248

Conditions at: KCTY observed 22 July 2017  16:15 UTC
Temperature: 25.8°C (78°F)
Dewpoint: 24.1°C (75°F) [RH = 90%]
Pressure (altimeter): 30.12 inches Hg (1020.1 mb)
Winds: calm
Visibility: 10 or more miles (16+ km)
Ceiling: 3800 feet AGL
Clouds: scattered clouds at 2500 feet AGL
broken clouds at 3800 feet AGL
overcast cloud deck at 4400 feet AGL
Present Weather: VCTS -RA  (thunderstorm in vicinity, light rain)
KCTY 221615Z AUTO 00000KT 10SM -VCTSRA SCT025 BKN038 OVC044 26/24 A3012 RMK AO2 LTG DSNT ALQDS P0002 T02580241

Conditions at: KCTY observed 22 July 2017  15:55 UTC
Temperature: 25.0°C (77°F)
Dewpoint: 23.7°C (75°F) [RH = 93%]
Pressure (altimeter): 30.13 inches Hg (1020.4 mb)
Winds: from the SE (140 degrees) at 5 MPH (4 knots; 2.1 m/s)
Visibility: 2.50 miles (4.02 km)
Ceiling: 3100 feet AGL
Clouds: scattered clouds at 2400 feet AGL
broken clouds at 3100 feet AGL
overcast cloud deck at 5500 feet AGL
Present Weather: +TSRA BR  (heavy rain associated with thunderstorm(s), mist)
KCTY 221555Z AUTO 14004KT 2 1/2SM +TSRA BR SCT024 BKN031 OVC055 25/24 A3013 RMK AO2 VIS 1 1/2V5 LTG DSNT ALQDS P0034 T02500237

Conditions at: KCTY observed 22 July 2017  15:35 UTC
Temperature: 28.1°C (83°F)
Dewpoint: 22.7°C (73°F) [RH = 73%]
Pressure (altimeter): 30.12 inches Hg (1020.1 mb)
Winds: from the SW (220 degrees) at 14 MPH (12 knots; 6.2 m/s)
gusting to 23 MPH (20 knots; 10.4 m/s)
Visibility: 10 or more miles (16+ km)
Ceiling: 2700 feet AGL
Clouds: scattered clouds at 2100 feet AGL
broken clouds at 2700 feet AGL
broken clouds at 3400 feet AGL
Present Weather: automated observation with no human augmentation;
there may or may not be significant weather present at this time
KCTY 221535Z AUTO 22012G20KT 10SM SCT021 BKN027 BKN034 28/23 A3012 RMK AO2 LTG DSNT S THRU NW T02810227

Conditions at: KCTY observed 22 July 2017  15:15 UTC
Temperature: 30.3°C (87°F)
Dewpoint: 25.5°C (78°F) [RH = 76%]
Pressure (altimeter): 30.12 inches Hg (1020.1 mb)
Winds: from the S (180 degrees) at 5 MPH (4 knots; 2.1 m/s)
Visibility: 10 or more miles (16+ km)
Ceiling: at least 12,000 feet AGL
Clouds: scattered clouds at 1900 feet AGL
Present Weather: VCTS  (thunderstorm in vicinity)
KCTY 221515Z AUTO 18004KT 10SM VCTS SCT019 30/26 A3012 RMK AO2 LTG DSNT S THRU NW T03030255

Conditions at: KCTY observed 22 July 2017  14:55 UTC
Temperature: 30.1°C (86°F)
Dewpoint: 25.3°C (78°F) [RH = 76%]
Pressure (altimeter): 30.12 inches Hg (1020.1 mb)
Winds: from the SSW (200 degrees) at 6 MPH (5 knots; 2.6 m/s)
Visibility: 10 or more miles (16+ km)
Ceiling: 1900 feet AGL
Clouds: broken clouds at 1900 feet AGL
broken clouds at 2500 feet AGL
broken clouds at 2900 feet AGL
Present Weather: automated observation with no human augmentation;
there may or may not be significant weather present at this time
KCTY 221455Z AUTO 20005KT 10SM BKN019 BKN025 BKN029 30/25 A3012 RMK AO2 LTG DSNT S THRU NW T03010253

Conditions at: KCTY observed 22 July 2017  14:35 UTC
Temperature: 29.0°C (84°F)
Dewpoint: 24.9°C (77°F) [RH = 79%]
Pressure (altimeter): 30.12 inches Hg (1020.1 mb)
Winds: from the SSE (160 degrees) at 3 MPH (3 knots; 1.6 m/s)
Visibility: 10 or more miles (16+ km)
Ceiling: at least 12,000 feet AGL
Clouds: scattered clouds at 1800 feet AGL
Present Weather: VCTS  (thunderstorm in vicinity)
KCTY 221435Z AUTO 16003KT 10SM VCTS SCT018 29/25 A3012 RMK AO2 LTG DSNT S THRU NW T02900249

Conditions at: KCTY observed 22 July 2017  14:15 UTC
Temperature: 28.8°C (84°F)
Dewpoint: 25.3°C (78°F) [RH = 81%]
Pressure (altimeter): 30.12 inches Hg (1020.1 mb)
Winds: from the SE (140 degrees) at 5 MPH (4 knots; 2.1 m/s)
Visibility: 10 or more miles (16+ km)
Ceiling: at least 12,000 feet AGL
Clouds: sky clear below 12,000 feet AGL
Present Weather: automated observation with no human augmentation;
there may or may not be significant weather present at this time
KCTY 221415Z AUTO 14004KT 10SM CLR 29/25 A3012 RMK AO2 LTG DSNT S THRU NW T02880253

Conditions at: KCTY observed 22 July 2017  13:55 UTC
Temperature: 27.5°C (82°F)
Dewpoint: 24.6°C (76°F) [RH = 84%]
Pressure (altimeter): 30.13 inches Hg (1020.4 mb)
Winds: from the SE (130 degrees) at 3 MPH (3 knots; 1.6 m/s)
Visibility: 10 or more miles (16+ km)
Ceiling: at least 12,000 feet AGL
Clouds: sky clear below 12,000 feet AGL
Present Weather: automated observation with no human augmentation;
there may or may not be significant weather present at this time
KCTY 221355Z AUTO 13003KT 10SM CLR 27/25 A3013 RMK AO2 LTG DSNT S THRU W T02750246

Conditions at: KCTY observed 22 July 2017  13:35 UTC
Temperature: 26.8°C (80°F)
Dewpoint: 24.8°C (77°F) [RH = 89%]
Pressure (altimeter): 30.12 inches Hg (1020.1 mb)
Winds: calm
Visibility: 10 or more miles (16+ km)
Ceiling: at least 12,000 feet AGL
Clouds: sky clear below 12,000 feet AGL
Present Weather: automated observation with no human augmentation;
there may or may not be significant weather present at this time
KCTY 221335Z AUTO 00000KT 10SM CLR 27/25 A3012 RMK AO2 LTG DSNT S AND SW T02680248

Conditions at: KCTY observed 22 July 2017  13:15 UTC
Temperature: 26.7°C (80°F)
Dewpoint: 24.7°C (76°F) [RH = 89%]
Pressure (altimeter): 30.13 inches Hg (1020.4 mb)
Winds: from the SE (130 degrees) at 3 MPH (3 knots; 1.6 m/s)
Visibility: 10 or more miles (16+ km)
Ceiling: at least 12,000 feet AGL
Clouds: sky clear below 12,000 feet AGL
Present Weather: automated observation with no human augmentation;
there may or may not be significant weather present at this time
KCTY 221315Z AUTO 13003KT 10SM CLR 27/25 A3013 RMK AO2 LTG DSNT S THRU W T02670247

Conditions at: KCTY observed 22 July 2017  12:55 UTC
Temperature: 26.1°C (79°F)
Dewpoint: 24.6°C (76°F) [RH = 91%]
Pressure (altimeter): 30.12 inches Hg (1020.1 mb)
Winds: from the ESE (120 degrees) at 3 MPH (3 knots; 1.6 m/s)
Visibility: 10 or more miles (16+ km)
Ceiling: at least 12,000 feet AGL
Clouds: scattered clouds at 9000 feet AGL
Present Weather: VCTS  (thunderstorm in vicinity)
KCTY 221255Z AUTO 12003KT 10SM VCTS SCT090 26/25 A3012 RMK AO2 LTG DSNT S AND SW T02610246

Conditions at: KCTY observed 22 July 2017  12:35 UTC
Temperature: 25.1°C (77°F)
Dewpoint: 23.9°C (75°F) [RH = 93%]
Pressure (altimeter): 30.12 inches Hg (1020.1 mb)
Winds: calm
Visibility: 10 or more miles (16+ km)
Ceiling: at least 12,000 feet AGL
Clouds: sky clear below 12,000 feet AGL
Present Weather: automated observation with no human augmentation;
there may or may not be significant weather present at this time
KCTY 221235Z AUTO 00000KT 10SM CLR 25/24 A3012 RMK AO2 LTG DSNT S AND SW T02510239

Conditions at: KCTY observed 22 July 2017  12:15 UTC
Temperature: 24.2°C (76°F)
Dewpoint: 23.4°C (74°F) [RH = 95%]
Pressure (altimeter): 30.11 inches Hg (1019.7 mb)
Winds: calm
Visibility: 10 or more miles (16+ km)
Ceiling: at least 12,000 feet AGL
Clouds: sky clear below 12,000 feet AGL
Present Weather: VCTS  (thunderstorm in vicinity)
KCTY 221215Z AUTO 00000KT 10SM VCTS CLR 24/23 A3011 RMK AO2 LTG DSNT S AND SW T02420234

Conditions at: KCTY observed 22 July 2017  11:55 UTC
Temperature: 23.4°C (74°F)
Dewpoint: 23.0°C (73°F) [RH = 98%]
Pressure (altimeter): 30.10 inches Hg (1019.4 mb)
Winds: calm
Visibility: 10 or more miles (16+ km)
Ceiling: at least 12,000 feet AGL
Clouds: sky clear below 12,000 feet AGL
Present Weather: VCTS  (thunderstorm in vicinity)
KCTY 221155Z AUTO 00000KT 10SM VCTS CLR 23/23 A3010 RMK AO2 LTG DSNT S AND SW T02340230 10234 20217 60011 70024

Conditions at: KCTY observed 22 July 2017  11:35 UTC
Temperature: 23.0°C (73°F)
Dewpoint: 22.7°C (73°F) [RH = 98%]
Pressure (altimeter): 30.09 inches Hg (1019.0 mb)
Winds: calm
Visibility: 10 or more miles (16+ km)
Ceiling: at least 12,000 feet AGL
Clouds: sky clear below 12,000 feet AGL
Present Weather: VCTS  (thunderstorm in vicinity)
KCTY 221135Z AUTO 00000KT 10SM VCTS CLR 23/23 A3009 RMK AO2 LTG DSNT S AND SW T02300227

Conditions at: KCTY observed 22 July 2017  11:15 UTC
Temperature: 22.8°C (73°F)
Dewpoint: 22.4°C (72°F) [RH = 98%]
Pressure (altimeter): 30.08 inches Hg (1018.7 mb)
Winds: calm
Visibility: 7 miles (11 km)
Ceiling: at least 12,000 feet AGL
Clouds: sky clear below 12,000 feet AGL
Present Weather: automated observation with no human augmentation;
there may or may not be significant weather present at this time
KCTY 221115Z AUTO 00000KT 7SM CLR 23/22 A3008 RMK AO2 LTG DSNT S THRU W T02280224

Conditions at: KCTY observed 22 July 2017  10:55 UTC
Temperature: 22.6°C (73°F)
Dewpoint: 22.2°C (72°F) [RH = 98%]
Pressure (altimeter): 30.08 inches Hg (1018.7 mb)
Winds: calm
Visibility: 7 miles (11 km)
Ceiling: at least 12,000 feet AGL
Clouds: sky clear below 12,000 feet AGL
Present Weather: automated observation with no human augmentation;
there may or may not be significant weather present at this time
KCTY 221055Z AUTO 00000KT 7SM CLR 23/22 A3008 RMK AO2 LTG DSNT S AND SW P0001 T02260222

Conditions at: KCTY observed 22 July 2017  10:35 UTC
Temperature: 22.8°C (73°F)
Dewpoint: 22.4°C (72°F) [RH = 98%]
Pressure (altimeter): 30.08 inches Hg (1018.7 mb)
Winds: calm
Visibility: 10 or more miles (16+ km)
Ceiling: at least 12,000 feet AGL
Clouds: sky clear below 12,000 feet AGL
Present Weather: automated observation with no human augmentation;
there may or may not be significant weather present at this time
KCTY 221035Z AUTO 00000KT 10SM CLR 23/22 A3008 RMK AO2 LTG DSNT S P0001 T02280224

Conditions at: KCTY observed 22 July 2017  10:15 UTC
Temperature: 22.8°C (73°F)
Dewpoint: 22.4°C (72°F) [RH = 98%]
Pressure (altimeter): 30.07 inches Hg (1018.4 mb)
Winds: calm
Visibility: 10 or more miles (16+ km)
Ceiling: at least 12,000 feet AGL
Clouds: scattered clouds at 12000 feet AGL
Present Weather: automated observation with no human augmentation;
there may or may not be significant weather present at this time
KCTY 221015Z AUTO 00000KT 10SM SCT120 23/22 A3007 RMK AO2 LTG DSNT S T02280224

Conditions at: KCTY observed 22 July 2017  09:55 UTC
Temperature: 22.7°C (73°F)
Dewpoint: 22.3°C (72°F) [RH = 98%]
Pressure (altimeter): 30.07 inches Hg (1018.4 mb)
Winds: calm
Visibility: 10 or more miles (16+ km)
Ceiling: 12000 feet AGL
Clouds: broken clouds at 12000 feet AGL
Present Weather: automated observation with no human augmentation;
there may or may not be significant weather present at this time
KCTY 220955Z AUTO 00000KT 10SM BKN120 23/22 A3007 RMK AO2 LTG DSNT S AND SW T02270223

Conditions at: KCTY observed 22 July 2017  09:35 UTC
Temperature: 22.5°C (72°F)
Dewpoint: 22.1°C (72°F) [RH = 98%]
Pressure (altimeter): 30.06 inches Hg (1018.0 mb)
Winds: calm
Visibility: 10 or more miles (16+ km)
Ceiling: at least 12,000 feet AGL
Clouds: scattered clouds at 12000 feet AGL
Present Weather: automated observation with no human augmentation;
there may or may not be significant weather present at this time
KCTY 220935Z AUTO 00000KT 10SM SCT120 22/22 A3006 RMK AO2 LTG DSNT SW T02250221

Conditions at: KCTY observed 22 July 2017  09:15 UTC
Temperature: 23.0°C (73°F)
Dewpoint: 22.0°C (72°F) [RH = 94%]
Pressure (altimeter): 30.05 inches Hg (1017.7 mb)
Winds: calm
Visibility: 10 or more miles (16+ km)
Ceiling: 12000 feet AGL
Clouds: scattered clouds at 8500 feet AGL
broken clouds at 12000 feet AGL
Present Weather: automated observation with no human augmentation;
there may or may not be significant weather present at this time
KCTY 220915Z AUTO 00000KT 10SM SCT085 BKN120 23/22 A3005 RMK AO2 LTG DSNT SW

Conditions at: KCTY observed 22 July 2017  08:55 UTC
Temperature: 22.6°C (73°F)
Dewpoint: 22.1°C (72°F) [RH = 97%]
Pressure (altimeter): 30.06 inches Hg (1018.0 mb)
Winds: from the W (280 degrees) at 3 MPH (3 knots; 1.6 m/s)
Visibility: 10 or more miles (16+ km)
Ceiling: 8500 feet AGL
Clouds: scattered clouds at 2800 feet AGL
scattered clouds at 4600 feet AGL
overcast cloud deck at 8500 feet AGL
Present Weather: automated observation with no human augmentation;
there may or may not be significant weather present at this time
KCTY 220855Z AUTO 28003KT 10SM SCT028 SCT046 OVC085 23/22 A3006 RMK AO2 P0010 T02260221 60010